<?xml version="1.0" encoding="UTF-8" standalone="no" ?>
<gpx xmlns="http://www.topografix.com/GPX/1/1" xmlns:xsi="http://www.w3.org/2001/XMLSchema-instance" xsi:schemaLocation="http://www.topografix.com/GPX/1/1 http://www.topografix.com/GPX/1/1/gpx.xsd" version="1.1" creator="VisuGPX - https://www.visugpx.com">
  <metadata>
    <name>64 - VTT - Coteaux</name>
    <desc><![CDATA[Reprise entrainement cotes.]]></desc>
  </metadata>
  <trk>
    <name><![CDATA[ACTIVE LOG 012]]></name>
    <trkseg>
      <trkpt lat="43.31576" lon="-0.58649">
        <ele>202.01428222656</ele>
        <time>2016-07-30T06:22:17Z</time>
      </trkpt>
      <trkpt lat="43.31576" lon="-0.58649">
        <ele>202.01428222656</ele>
        <time>2016-07-30T06:22:18Z</time>
      </trkpt>
      <trkpt lat="43.31576" lon="-0.58649">
        <ele>200.572265625</ele>
        <time>2016-07-30T06:22:19Z</time>
      </trkpt>
      <trkpt lat="43.31577" lon="-0.58649">
        <ele>202.01428222656</ele>
        <time>2016-07-30T06:22:42Z</time>
      </trkpt>
      <trkpt lat="43.31577" lon="-0.58649">
        <ele>201.05285644531</ele>
        <time>2016-07-30T06:22:43Z</time>
      </trkpt>
      <trkpt lat="43.31576" lon="-0.58647">
        <ele>201.05285644531</ele>
        <time>2016-07-30T06:23:06Z</time>
      </trkpt>
      <trkpt lat="43.31575" lon="-0.58646">
        <ele>201.05285644531</ele>
        <time>2016-07-30T06:23:20Z</time>
      </trkpt>
      <trkpt lat="43.31576" lon="-0.58643">
        <ele>201.05285644531</ele>
        <time>2016-07-30T06:23:37Z</time>
      </trkpt>
      <trkpt lat="43.31573" lon="-0.58648">
        <ele>200.572265625</ele>
        <time>2016-07-30T06:23:50Z</time>
      </trkpt>
      <trkpt lat="43.31574" lon="-0.58649">
        <ele>201.53356933594</ele>
        <time>2016-07-30T06:24:03Z</time>
      </trkpt>
      <trkpt lat="43.31575" lon="-0.58648">
        <ele>201.53356933594</ele>
        <time>2016-07-30T06:24:25Z</time>
      </trkpt>
      <trkpt lat="43.31578" lon="-0.58646">
        <ele>201.05285644531</ele>
        <time>2016-07-30T06:24:28Z</time>
      </trkpt>
      <trkpt lat="43.31585" lon="-0.58633">
        <ele>200.09167480469</ele>
        <time>2016-07-30T06:24:32Z</time>
      </trkpt>
      <trkpt lat="43.31587" lon="-0.58606">
        <ele>198.1689453125</ele>
        <time>2016-07-30T06:24:36Z</time>
      </trkpt>
      <trkpt lat="43.31582" lon="-0.58545">
        <ele>195.765625</ele>
        <time>2016-07-30T06:24:46Z</time>
      </trkpt>
      <trkpt lat="43.31595" lon="-0.58534">
        <ele>193.3623046875</ele>
        <time>2016-07-30T06:24:50Z</time>
      </trkpt>
      <trkpt lat="43.31608" lon="-0.58529">
        <ele>192.40112304688</ele>
        <time>2016-07-30T06:24:52Z</time>
      </trkpt>
      <trkpt lat="43.31646" lon="-0.58523">
        <ele>186.63317871094</ele>
        <time>2016-07-30T06:24:56Z</time>
      </trkpt>
      <trkpt lat="43.31666" lon="-0.5852">
        <ele>183.26843261719</ele>
        <time>2016-07-30T06:24:58Z</time>
      </trkpt>
      <trkpt lat="43.31694" lon="-0.58517">
        <ele>178.94262695312</ele>
        <time>2016-07-30T06:25:01Z</time>
      </trkpt>
      <trkpt lat="43.31731" lon="-0.58492">
        <ele>172.69396972656</ele>
        <time>2016-07-30T06:25:05Z</time>
      </trkpt>
      <trkpt lat="43.31759" lon="-0.58463">
        <ele>171.25207519531</ele>
        <time>2016-07-30T06:25:08Z</time>
      </trkpt>
      <trkpt lat="43.31768" lon="-0.58454">
        <ele>170.29064941406</ele>
        <time>2016-07-30T06:25:09Z</time>
      </trkpt>
      <trkpt lat="43.31807" lon="-0.58392">
        <ele>168.84875488281</ele>
        <time>2016-07-30T06:25:15Z</time>
      </trkpt>
      <trkpt lat="43.31805" lon="-0.58362">
        <ele>168.84875488281</ele>
        <time>2016-07-30T06:25:20Z</time>
      </trkpt>
      <trkpt lat="43.31782" lon="-0.58307">
        <ele>166.92602539062</ele>
        <time>2016-07-30T06:25:28Z</time>
      </trkpt>
      <trkpt lat="43.31761" lon="-0.58216">
        <ele>163.08081054688</ele>
        <time>2016-07-30T06:25:37Z</time>
      </trkpt>
      <trkpt lat="43.31732" lon="-0.58115">
        <ele>160.19689941406</ele>
        <time>2016-07-30T06:25:46Z</time>
      </trkpt>
      <trkpt lat="43.31718" lon="-0.58083">
        <ele>159.23547363281</ele>
        <time>2016-07-30T06:25:49Z</time>
      </trkpt>
      <trkpt lat="43.31694" lon="-0.57967">
        <ele>155.87097167969</ele>
        <time>2016-07-30T06:25:59Z</time>
      </trkpt>
      <trkpt lat="43.31668" lon="-0.579">
        <ele>152.98693847656</ele>
        <time>2016-07-30T06:26:07Z</time>
      </trkpt>
      <trkpt lat="43.31666" lon="-0.57896">
        <ele>151.544921875</ele>
        <time>2016-07-30T06:26:08Z</time>
      </trkpt>
      <trkpt lat="43.31676" lon="-0.57872">
        <ele>152.02575683594</ele>
        <time>2016-07-30T06:26:14Z</time>
      </trkpt>
      <trkpt lat="43.31736" lon="-0.57834">
        <ele>155.39025878906</ele>
        <time>2016-07-30T06:26:31Z</time>
      </trkpt>
      <trkpt lat="43.31743" lon="-0.57822">
        <ele>155.87097167969</ele>
        <time>2016-07-30T06:26:34Z</time>
      </trkpt>
      <trkpt lat="43.31749" lon="-0.57802">
        <ele>156.3515625</ele>
        <time>2016-07-30T06:26:38Z</time>
      </trkpt>
      <trkpt lat="43.31756" lon="-0.57723">
        <ele>154.42895507812</ele>
        <time>2016-07-30T06:26:50Z</time>
      </trkpt>
      <trkpt lat="43.3179" lon="-0.57673">
        <ele>152.98693847656</ele>
        <time>2016-07-30T06:26:59Z</time>
      </trkpt>
      <trkpt lat="43.31796" lon="-0.57672">
        <ele>153.46765136719</ele>
        <time>2016-07-30T06:27:00Z</time>
      </trkpt>
      <trkpt lat="43.31883" lon="-0.57693">
        <ele>152.02575683594</ele>
        <time>2016-07-30T06:27:16Z</time>
      </trkpt>
      <trkpt lat="43.31957" lon="-0.57731">
        <ele>149.62231445312</ele>
        <time>2016-07-30T06:27:31Z</time>
      </trkpt>
      <trkpt lat="43.31975" lon="-0.57738">
        <ele>148.18041992188</ele>
        <time>2016-07-30T06:27:41Z</time>
      </trkpt>
      <trkpt lat="43.31992" lon="-0.57744">
        <ele>147.69970703125</ele>
        <time>2016-07-30T06:27:53Z</time>
      </trkpt>
      <trkpt lat="43.32013" lon="-0.57699">
        <ele>145.29638671875</ele>
        <time>2016-07-30T06:28:04Z</time>
      </trkpt>
      <trkpt lat="43.32043" lon="-0.5763">
        <ele>145.29638671875</ele>
        <time>2016-07-30T06:28:15Z</time>
      </trkpt>
      <trkpt lat="43.32091" lon="-0.57524">
        <ele>142.41247558594</ele>
        <time>2016-07-30T06:28:31Z</time>
      </trkpt>
      <trkpt lat="43.3212" lon="-0.57457">
        <ele>139.52844238281</ele>
        <time>2016-07-30T06:28:38Z</time>
      </trkpt>
      <trkpt lat="43.32158" lon="-0.57372">
        <ele>136.16394042969</ele>
        <time>2016-07-30T06:28:46Z</time>
      </trkpt>
      <trkpt lat="43.32212" lon="-0.57246">
        <ele>134.2412109375</ele>
        <time>2016-07-30T06:29:00Z</time>
      </trkpt>
      <trkpt lat="43.32229" lon="-0.57137">
        <ele>134.72192382812</ele>
        <time>2016-07-30T06:29:14Z</time>
      </trkpt>
      <trkpt lat="43.32248" lon="-0.56965">
        <ele>134.72192382812</ele>
        <time>2016-07-30T06:29:37Z</time>
      </trkpt>
      <trkpt lat="43.32265" lon="-0.56808">
        <ele>136.16394042969</ele>
        <time>2016-07-30T06:30:00Z</time>
      </trkpt>
      <trkpt lat="43.32273" lon="-0.56745">
        <ele>138.08654785156</ele>
        <time>2016-07-30T06:30:10Z</time>
      </trkpt>
      <trkpt lat="43.32257" lon="-0.56709">
        <ele>138.08654785156</ele>
        <time>2016-07-30T06:30:18Z</time>
      </trkpt>
      <trkpt lat="43.32149" lon="-0.56669">
        <ele>135.68310546875</ele>
        <time>2016-07-30T06:30:38Z</time>
      </trkpt>
      <trkpt lat="43.32139" lon="-0.56663">
        <ele>135.68310546875</ele>
        <time>2016-07-30T06:30:40Z</time>
      </trkpt>
      <trkpt lat="43.32053" lon="-0.56616">
        <ele>135.20251464844</ele>
        <time>2016-07-30T06:30:58Z</time>
      </trkpt>
      <trkpt lat="43.31974" lon="-0.56601">
        <ele>137.12524414062</ele>
        <time>2016-07-30T06:31:15Z</time>
      </trkpt>
      <trkpt lat="43.31914" lon="-0.56545">
        <ele>136.64465332031</ele>
        <time>2016-07-30T06:31:32Z</time>
      </trkpt>
      <trkpt lat="43.3188" lon="-0.56488">
        <ele>140.00915527344</ele>
        <time>2016-07-30T06:31:47Z</time>
      </trkpt>
      <trkpt lat="43.31861" lon="-0.56457">
        <ele>142.89306640625</ele>
        <time>2016-07-30T06:31:57Z</time>
      </trkpt>
      <trkpt lat="43.31833" lon="-0.5641">
        <ele>145.77709960938</ele>
        <time>2016-07-30T06:32:15Z</time>
      </trkpt>
      <trkpt lat="43.31801" lon="-0.56385">
        <ele>148.66101074219</ele>
        <time>2016-07-30T06:32:31Z</time>
      </trkpt>
      <trkpt lat="43.31787" lon="-0.56384">
        <ele>150.10302734375</ele>
        <time>2016-07-30T06:32:37Z</time>
      </trkpt>
      <trkpt lat="43.31746" lon="-0.5638">
        <ele>152.98693847656</ele>
        <time>2016-07-30T06:32:59Z</time>
      </trkpt>
      <trkpt lat="43.31724" lon="-0.56367">
        <ele>156.3515625</ele>
        <time>2016-07-30T06:33:12Z</time>
      </trkpt>
      <trkpt lat="43.31688" lon="-0.5634">
        <ele>159.71618652344</ele>
        <time>2016-07-30T06:33:33Z</time>
      </trkpt>
      <trkpt lat="43.31661" lon="-0.56327">
        <ele>162.60009765625</ele>
        <time>2016-07-30T06:33:48Z</time>
      </trkpt>
      <trkpt lat="43.31619" lon="-0.56309">
        <ele>165.48413085938</ele>
        <time>2016-07-30T06:34:11Z</time>
      </trkpt>
      <trkpt lat="43.31589" lon="-0.56288">
        <ele>168.36804199219</ele>
        <time>2016-07-30T06:34:29Z</time>
      </trkpt>
      <trkpt lat="43.31567" lon="-0.56256">
        <ele>171.73266601562</ele>
        <time>2016-07-30T06:34:45Z</time>
      </trkpt>
      <trkpt lat="43.31541" lon="-0.56216">
        <ele>173.6552734375</ele>
        <time>2016-07-30T06:35:05Z</time>
      </trkpt>
      <trkpt lat="43.315" lon="-0.5618">
        <ele>177.02001953125</ele>
        <time>2016-07-30T06:35:26Z</time>
      </trkpt>
      <trkpt lat="43.31471" lon="-0.56143">
        <ele>178.94262695312</ele>
        <time>2016-07-30T06:35:42Z</time>
      </trkpt>
      <trkpt lat="43.31492" lon="-0.56115">
        <ele>181.34582519531</ele>
        <time>2016-07-30T06:35:54Z</time>
      </trkpt>
      <trkpt lat="43.31511" lon="-0.5608">
        <ele>183.26843261719</ele>
        <time>2016-07-30T06:36:09Z</time>
      </trkpt>
      <trkpt lat="43.31491" lon="-0.56059">
        <ele>181.34582519531</ele>
        <time>2016-07-30T06:36:15Z</time>
      </trkpt>
      <trkpt lat="43.31474" lon="-0.56026">
        <ele>178.4619140625</ele>
        <time>2016-07-30T06:36:19Z</time>
      </trkpt>
      <trkpt lat="43.31481" lon="-0.55977">
        <ele>175.09729003906</ele>
        <time>2016-07-30T06:36:23Z</time>
      </trkpt>
      <trkpt lat="43.31482" lon="-0.55964">
        <ele>175.57788085938</ele>
        <time>2016-07-30T06:36:24Z</time>
      </trkpt>
      <trkpt lat="43.31481" lon="-0.55937">
        <ele>174.13586425781</ele>
        <time>2016-07-30T06:36:26Z</time>
      </trkpt>
      <trkpt lat="43.31474" lon="-0.55897">
        <ele>172.69396972656</ele>
        <time>2016-07-30T06:36:29Z</time>
      </trkpt>
      <trkpt lat="43.31464" lon="-0.55855">
        <ele>169.81005859375</ele>
        <time>2016-07-30T06:36:32Z</time>
      </trkpt>
      <trkpt lat="43.31461" lon="-0.5584">
        <ele>169.32946777344</ele>
        <time>2016-07-30T06:36:33Z</time>
      </trkpt>
      <trkpt lat="43.31454" lon="-0.55778">
        <ele>165.96472167969</ele>
        <time>2016-07-30T06:36:37Z</time>
      </trkpt>
      <trkpt lat="43.31449" lon="-0.55731">
        <ele>164.04211425781</ele>
        <time>2016-07-30T06:36:40Z</time>
      </trkpt>
      <trkpt lat="43.31443" lon="-0.5571">
        <ele>163.08081054688</ele>
        <time>2016-07-30T06:36:42Z</time>
      </trkpt>
      <trkpt lat="43.31416" lon="-0.55704">
        <ele>163.5615234375</ele>
        <time>2016-07-30T06:36:46Z</time>
      </trkpt>
      <trkpt lat="43.31377" lon="-0.55713">
        <ele>165.48413085938</ele>
        <time>2016-07-30T06:36:58Z</time>
      </trkpt>
      <trkpt lat="43.31349" lon="-0.55749">
        <ele>168.36804199219</ele>
        <time>2016-07-30T06:37:15Z</time>
      </trkpt>
      <trkpt lat="43.313" lon="-0.55775">
        <ele>172.21325683594</ele>
        <time>2016-07-30T06:37:38Z</time>
      </trkpt>
      <trkpt lat="43.31267" lon="-0.55784">
        <ele>175.57788085938</ele>
        <time>2016-07-30T06:37:55Z</time>
      </trkpt>
      <trkpt lat="43.3124" lon="-0.55792">
        <ele>178.94262695312</ele>
        <time>2016-07-30T06:38:10Z</time>
      </trkpt>
      <trkpt lat="43.31201" lon="-0.55808">
        <ele>181.82641601562</ele>
        <time>2016-07-30T06:38:31Z</time>
      </trkpt>
      <trkpt lat="43.3117" lon="-0.55817">
        <ele>185.19116210938</ele>
        <time>2016-07-30T06:38:47Z</time>
      </trkpt>
      <trkpt lat="43.31129" lon="-0.55817">
        <ele>188.55578613281</ele>
        <time>2016-07-30T06:39:06Z</time>
      </trkpt>
      <trkpt lat="43.31088" lon="-0.55797">
        <ele>189.51696777344</ele>
        <time>2016-07-30T06:39:25Z</time>
      </trkpt>
      <trkpt lat="43.31046" lon="-0.55748">
        <ele>190.958984375</ele>
        <time>2016-07-30T06:39:47Z</time>
      </trkpt>
      <trkpt lat="43.30999" lon="-0.55706">
        <ele>191.92028808594</ele>
        <time>2016-07-30T06:40:08Z</time>
      </trkpt>
      <trkpt lat="43.3095" lon="-0.55651">
        <ele>193.84301757812</ele>
        <time>2016-07-30T06:40:25Z</time>
      </trkpt>
      <trkpt lat="43.30941" lon="-0.55642">
        <ele>195.765625</ele>
        <time>2016-07-30T06:40:30Z</time>
      </trkpt>
      <trkpt lat="43.3091" lon="-0.55607">
        <ele>198.64953613281</ele>
        <time>2016-07-30T06:40:51Z</time>
      </trkpt>
      <trkpt lat="43.30894" lon="-0.55585">
        <ele>202.49487304688</ele>
        <time>2016-07-30T06:41:03Z</time>
      </trkpt>
      <trkpt lat="43.30893" lon="-0.55583">
        <ele>202.49487304688</ele>
        <time>2016-07-30T06:41:04Z</time>
      </trkpt>
      <trkpt lat="43.30866" lon="-0.55538">
        <ele>204.41748046875</ele>
        <time>2016-07-30T06:41:23Z</time>
      </trkpt>
      <trkpt lat="43.30838" lon="-0.55473">
        <ele>207.30139160156</ele>
        <time>2016-07-30T06:41:46Z</time>
      </trkpt>
      <trkpt lat="43.30828" lon="-0.55451">
        <ele>210.666015625</ele>
        <time>2016-07-30T06:41:56Z</time>
      </trkpt>
      <trkpt lat="43.30802" lon="-0.55411">
        <ele>213.0693359375</ele>
        <time>2016-07-30T06:42:16Z</time>
      </trkpt>
      <trkpt lat="43.30763" lon="-0.55355">
        <ele>213.55004882812</ele>
        <time>2016-07-30T06:42:36Z</time>
      </trkpt>
      <trkpt lat="43.30737" lon="-0.55318">
        <ele>216.91467285156</ele>
        <time>2016-07-30T06:42:51Z</time>
      </trkpt>
      <trkpt lat="43.30736" lon="-0.55316">
        <ele>216.91467285156</ele>
        <time>2016-07-30T06:42:52Z</time>
      </trkpt>
      <trkpt lat="43.30724" lon="-0.55297">
        <ele>220.27917480469</ele>
        <time>2016-07-30T06:43:02Z</time>
      </trkpt>
      <trkpt lat="43.30711" lon="-0.55274">
        <ele>223.64379882812</ele>
        <time>2016-07-30T06:43:14Z</time>
      </trkpt>
      <trkpt lat="43.3069" lon="-0.55242">
        <ele>225.56652832031</ele>
        <time>2016-07-30T06:43:30Z</time>
      </trkpt>
      <trkpt lat="43.30676" lon="-0.55217">
        <ele>227.48913574219</ele>
        <time>2016-07-30T06:43:42Z</time>
      </trkpt>
      <trkpt lat="43.30659" lon="-0.5518">
        <ele>231.33435058594</ele>
        <time>2016-07-30T06:44:00Z</time>
      </trkpt>
      <trkpt lat="43.30653" lon="-0.55167">
        <ele>232.77648925781</ele>
        <time>2016-07-30T06:44:06Z</time>
      </trkpt>
      <trkpt lat="43.30642" lon="-0.55147">
        <ele>236.62170410156</ele>
        <time>2016-07-30T06:44:16Z</time>
      </trkpt>
      <trkpt lat="43.3064" lon="-0.55143">
        <ele>237.58288574219</ele>
        <time>2016-07-30T06:44:18Z</time>
      </trkpt>
      <trkpt lat="43.30624" lon="-0.5509">
        <ele>238.06359863281</ele>
        <time>2016-07-30T06:44:34Z</time>
      </trkpt>
      <trkpt lat="43.30612" lon="-0.55064">
        <ele>239.50549316406</ele>
        <time>2016-07-30T06:44:44Z</time>
      </trkpt>
      <trkpt lat="43.30599" lon="-0.55037">
        <ele>241.42822265625</ele>
        <time>2016-07-30T06:44:57Z</time>
      </trkpt>
      <trkpt lat="43.30593" lon="-0.54994">
        <ele>243.35083007812</ele>
        <time>2016-07-30T06:45:13Z</time>
      </trkpt>
      <trkpt lat="43.30609" lon="-0.54933">
        <ele>243.35083007812</ele>
        <time>2016-07-30T06:45:28Z</time>
      </trkpt>
      <trkpt lat="43.30601" lon="-0.54873">
        <ele>239.50549316406</ele>
        <time>2016-07-30T06:45:34Z</time>
      </trkpt>
      <trkpt lat="43.30598" lon="-0.5486">
        <ele>239.50549316406</ele>
        <time>2016-07-30T06:45:35Z</time>
      </trkpt>
      <trkpt lat="43.30589" lon="-0.54822">
        <ele>236.14099121094</ele>
        <time>2016-07-30T06:45:38Z</time>
      </trkpt>
      <trkpt lat="43.30573" lon="-0.5479">
        <ele>232.29577636719</ele>
        <time>2016-07-30T06:45:41Z</time>
      </trkpt>
      <trkpt lat="43.30566" lon="-0.54781">
        <ele>230.373046875</ele>
        <time>2016-07-30T06:45:42Z</time>
      </trkpt>
      <trkpt lat="43.305" lon="-0.54714">
        <ele>230.373046875</ele>
        <time>2016-07-30T06:45:52Z</time>
      </trkpt>
      <trkpt lat="43.30471" lon="-0.54693">
        <ele>233.25708007812</ele>
        <time>2016-07-30T06:46:00Z</time>
      </trkpt>
      <trkpt lat="43.3044" lon="-0.54671">
        <ele>236.62170410156</ele>
        <time>2016-07-30T06:46:11Z</time>
      </trkpt>
      <trkpt lat="43.30408" lon="-0.54654">
        <ele>239.98620605469</ele>
        <time>2016-07-30T06:46:26Z</time>
      </trkpt>
      <trkpt lat="43.30397" lon="-0.54645">
        <ele>239.50549316406</ele>
        <time>2016-07-30T06:46:31Z</time>
      </trkpt>
      <trkpt lat="43.3034" lon="-0.54612">
        <ele>239.98620605469</ele>
        <time>2016-07-30T06:46:46Z</time>
      </trkpt>
      <trkpt lat="43.30318" lon="-0.54583">
        <ele>240.46704101562</ele>
        <time>2016-07-30T06:46:54Z</time>
      </trkpt>
      <trkpt lat="43.30306" lon="-0.54541">
        <ele>239.50549316406</ele>
        <time>2016-07-30T06:47:00Z</time>
      </trkpt>
      <trkpt lat="43.30304" lon="-0.54438">
        <ele>239.50549316406</ele>
        <time>2016-07-30T06:47:14Z</time>
      </trkpt>
      <trkpt lat="43.30282" lon="-0.54358">
        <ele>239.50549316406</ele>
        <time>2016-07-30T06:47:28Z</time>
      </trkpt>
      <trkpt lat="43.30264" lon="-0.54241">
        <ele>238.54431152344</ele>
        <time>2016-07-30T06:47:43Z</time>
      </trkpt>
      <trkpt lat="43.30272" lon="-0.54139">
        <ele>235.66027832031</ele>
        <time>2016-07-30T06:47:56Z</time>
      </trkpt>
      <trkpt lat="43.30273" lon="-0.54127">
        <ele>235.66027832031</ele>
        <time>2016-07-30T06:47:57Z</time>
      </trkpt>
      <trkpt lat="43.30286" lon="-0.54039">
        <ele>232.29577636719</ele>
        <time>2016-07-30T06:48:05Z</time>
      </trkpt>
      <trkpt lat="43.30287" lon="-0.54028">
        <ele>232.29577636719</ele>
        <time>2016-07-30T06:48:06Z</time>
      </trkpt>
      <trkpt lat="43.3029" lon="-0.53984">
        <ele>231.33435058594</ele>
        <time>2016-07-30T06:48:10Z</time>
      </trkpt>
      <trkpt lat="43.30276" lon="-0.53887">
        <ele>232.77648925781</ele>
        <time>2016-07-30T06:48:22Z</time>
      </trkpt>
      <trkpt lat="43.30262" lon="-0.53842">
        <ele>236.14099121094</ele>
        <time>2016-07-30T06:48:32Z</time>
      </trkpt>
      <trkpt lat="43.30211" lon="-0.53812">
        <ele>238.06359863281</ele>
        <time>2016-07-30T06:48:48Z</time>
      </trkpt>
      <trkpt lat="43.30156" lon="-0.53757">
        <ele>237.58288574219</ele>
        <time>2016-07-30T06:49:04Z</time>
      </trkpt>
      <trkpt lat="43.30143" lon="-0.53683">
        <ele>240.94763183594</ele>
        <time>2016-07-30T06:49:19Z</time>
      </trkpt>
      <trkpt lat="43.3013" lon="-0.53597">
        <ele>239.98620605469</ele>
        <time>2016-07-30T06:49:34Z</time>
      </trkpt>
      <trkpt lat="43.30119" lon="-0.53537">
        <ele>241.42822265625</ele>
        <time>2016-07-30T06:49:46Z</time>
      </trkpt>
      <trkpt lat="43.30074" lon="-0.53484">
        <ele>240.94763183594</ele>
        <time>2016-07-30T06:50:00Z</time>
      </trkpt>
      <trkpt lat="43.30025" lon="-0.53413">
        <ele>240.94763183594</ele>
        <time>2016-07-30T06:50:15Z</time>
      </trkpt>
      <trkpt lat="43.30005" lon="-0.53389">
        <ele>240.46704101562</ele>
        <time>2016-07-30T06:50:20Z</time>
      </trkpt>
      <trkpt lat="43.29983" lon="-0.53369">
        <ele>238.54431152344</ele>
        <time>2016-07-30T06:50:24Z</time>
      </trkpt>
      <trkpt lat="43.29948" lon="-0.53315">
        <ele>239.50549316406</ele>
        <time>2016-07-30T06:50:35Z</time>
      </trkpt>
      <trkpt lat="43.2993" lon="-0.53279">
        <ele>239.50549316406</ele>
        <time>2016-07-30T06:50:42Z</time>
      </trkpt>
      <trkpt lat="43.29925" lon="-0.5327">
        <ele>239.50549316406</ele>
        <time>2016-07-30T06:50:44Z</time>
      </trkpt>
      <trkpt lat="43.29876" lon="-0.5321">
        <ele>239.50549316406</ele>
        <time>2016-07-30T06:50:59Z</time>
      </trkpt>
      <trkpt lat="43.29845" lon="-0.5315">
        <ele>241.90893554688</ele>
        <time>2016-07-30T06:51:16Z</time>
      </trkpt>
      <trkpt lat="43.29847" lon="-0.53108">
        <ele>243.35083007812</ele>
        <time>2016-07-30T06:51:29Z</time>
      </trkpt>
      <trkpt lat="43.29878" lon="-0.53093">
        <ele>241.90893554688</ele>
        <time>2016-07-30T06:51:39Z</time>
      </trkpt>
      <trkpt lat="43.29901" lon="-0.53094">
        <ele>241.42822265625</ele>
        <time>2016-07-30T06:51:43Z</time>
      </trkpt>
      <trkpt lat="43.29965" lon="-0.53127">
        <ele>241.90893554688</ele>
        <time>2016-07-30T06:51:57Z</time>
      </trkpt>
      <trkpt lat="43.30039" lon="-0.53165">
        <ele>242.87023925781</ele>
        <time>2016-07-30T06:52:17Z</time>
      </trkpt>
      <trkpt lat="43.30081" lon="-0.53185">
        <ele>242.3896484375</ele>
        <time>2016-07-30T06:52:31Z</time>
      </trkpt>
      <trkpt lat="43.3013" lon="-0.53206">
        <ele>240.46704101562</ele>
        <time>2016-07-30T06:52:40Z</time>
      </trkpt>
      <trkpt lat="43.30174" lon="-0.53229">
        <ele>236.62170410156</ele>
        <time>2016-07-30T06:52:46Z</time>
      </trkpt>
      <trkpt lat="43.30214" lon="-0.53261">
        <ele>233.25708007812</ele>
        <time>2016-07-30T06:52:52Z</time>
      </trkpt>
      <trkpt lat="43.30258" lon="-0.53312">
        <ele>232.29577636719</ele>
        <time>2016-07-30T06:53:01Z</time>
      </trkpt>
      <trkpt lat="43.3028" lon="-0.53334">
        <ele>232.77648925781</ele>
        <time>2016-07-30T06:53:06Z</time>
      </trkpt>
      <trkpt lat="43.30315" lon="-0.5338">
        <ele>233.73767089844</ele>
        <time>2016-07-30T06:53:18Z</time>
      </trkpt>
      <trkpt lat="43.30351" lon="-0.53434">
        <ele>236.62170410156</ele>
        <time>2016-07-30T06:53:33Z</time>
      </trkpt>
      <trkpt lat="43.3039" lon="-0.53483">
        <ele>239.50549316406</ele>
        <time>2016-07-30T06:53:50Z</time>
      </trkpt>
      <trkpt lat="43.30425" lon="-0.53521">
        <ele>241.90893554688</ele>
        <time>2016-07-30T06:54:05Z</time>
      </trkpt>
      <trkpt lat="43.30455" lon="-0.53561">
        <ele>242.87023925781</ele>
        <time>2016-07-30T06:54:20Z</time>
      </trkpt>
      <trkpt lat="43.3048" lon="-0.53599">
        <ele>244.31225585938</ele>
        <time>2016-07-30T06:54:36Z</time>
      </trkpt>
      <trkpt lat="43.30503" lon="-0.5358">
        <ele>243.35083007812</ele>
        <time>2016-07-30T06:54:45Z</time>
      </trkpt>
      <trkpt lat="43.30528" lon="-0.53537">
        <ele>240.94763183594</ele>
        <time>2016-07-30T06:54:51Z</time>
      </trkpt>
      <trkpt lat="43.30538" lon="-0.53517">
        <ele>237.58288574219</ele>
        <time>2016-07-30T06:54:54Z</time>
      </trkpt>
      <trkpt lat="43.30546" lon="-0.53498">
        <ele>233.73767089844</ele>
        <time>2016-07-30T06:54:57Z</time>
      </trkpt>
      <trkpt lat="43.30555" lon="-0.53482">
        <ele>230.373046875</ele>
        <time>2016-07-30T06:55:01Z</time>
      </trkpt>
      <trkpt lat="43.30565" lon="-0.53479">
        <ele>229.89233398438</ele>
        <time>2016-07-30T06:55:04Z</time>
      </trkpt>
      <trkpt lat="43.30586" lon="-0.53486">
        <ele>226.52783203125</ele>
        <time>2016-07-30T06:55:09Z</time>
      </trkpt>
      <trkpt lat="43.30607" lon="-0.53494">
        <ele>223.64379882812</ele>
        <time>2016-07-30T06:55:14Z</time>
      </trkpt>
      <trkpt lat="43.30622" lon="-0.53499">
        <ele>222.20178222656</ele>
        <time>2016-07-30T06:55:17Z</time>
      </trkpt>
      <trkpt lat="43.3065" lon="-0.53508">
        <ele>218.83728027344</ele>
        <time>2016-07-30T06:55:24Z</time>
      </trkpt>
      <trkpt lat="43.30684" lon="-0.53522">
        <ele>216.43395996094</ele>
        <time>2016-07-30T06:55:39Z</time>
      </trkpt>
      <trkpt lat="43.307" lon="-0.53505">
        <ele>214.99194335938</ele>
        <time>2016-07-30T06:55:48Z</time>
      </trkpt>
      <trkpt lat="43.30725" lon="-0.53465">
        <ele>214.03063964844</ele>
        <time>2016-07-30T06:56:01Z</time>
      </trkpt>
      <trkpt lat="43.30761" lon="-0.53422">
        <ele>210.666015625</ele>
        <time>2016-07-30T06:56:11Z</time>
      </trkpt>
      <trkpt lat="43.30773" lon="-0.53406">
        <ele>209.22412109375</ele>
        <time>2016-07-30T06:56:14Z</time>
      </trkpt>
      <trkpt lat="43.30776" lon="-0.53402">
        <ele>208.26281738281</ele>
        <time>2016-07-30T06:56:15Z</time>
      </trkpt>
      <trkpt lat="43.30785" lon="-0.5339">
        <ele>206.82067871094</ele>
        <time>2016-07-30T06:56:18Z</time>
      </trkpt>
      <trkpt lat="43.30787" lon="-0.53382">
        <ele>205.37878417969</ele>
        <time>2016-07-30T06:56:20Z</time>
      </trkpt>
      <trkpt lat="43.30804" lon="-0.53345">
        <ele>202.01428222656</ele>
        <time>2016-07-30T06:56:27Z</time>
      </trkpt>
      <trkpt lat="43.30815" lon="-0.53334">
        <ele>201.05285644531</ele>
        <time>2016-07-30T06:56:30Z</time>
      </trkpt>
      <trkpt lat="43.30834" lon="-0.53322">
        <ele>197.68823242188</ele>
        <time>2016-07-30T06:56:35Z</time>
      </trkpt>
      <trkpt lat="43.30849" lon="-0.53312">
        <ele>196.72692871094</ele>
        <time>2016-07-30T06:56:39Z</time>
      </trkpt>
      <trkpt lat="43.30856" lon="-0.53306">
        <ele>195.765625</ele>
        <time>2016-07-30T06:56:41Z</time>
      </trkpt>
      <trkpt lat="43.30868" lon="-0.53296">
        <ele>194.80432128906</ele>
        <time>2016-07-30T06:56:44Z</time>
      </trkpt>
      <trkpt lat="43.30901" lon="-0.53268">
        <ele>194.32373046875</ele>
        <time>2016-07-30T06:56:54Z</time>
      </trkpt>
      <trkpt lat="43.30927" lon="-0.53243">
        <ele>190.47839355469</ele>
        <time>2016-07-30T06:57:03Z</time>
      </trkpt>
      <trkpt lat="43.3093" lon="-0.53239">
        <ele>189.99768066406</ele>
        <time>2016-07-30T06:57:04Z</time>
      </trkpt>
      <trkpt lat="43.30939" lon="-0.53231">
        <ele>188.07507324219</ele>
        <time>2016-07-30T06:57:07Z</time>
      </trkpt>
      <trkpt lat="43.30955" lon="-0.53221">
        <ele>186.63317871094</ele>
        <time>2016-07-30T06:57:11Z</time>
      </trkpt>
      <trkpt lat="43.30984" lon="-0.53203">
        <ele>184.22985839844</ele>
        <time>2016-07-30T06:57:19Z</time>
      </trkpt>
      <trkpt lat="43.30992" lon="-0.53197">
        <ele>184.71057128906</ele>
        <time>2016-07-30T06:57:21Z</time>
      </trkpt>
      <trkpt lat="43.31021" lon="-0.53162">
        <ele>182.78784179688</ele>
        <time>2016-07-30T06:57:30Z</time>
      </trkpt>
      <trkpt lat="43.31028" lon="-0.53155">
        <ele>181.82641601562</ele>
        <time>2016-07-30T06:57:32Z</time>
      </trkpt>
      <trkpt lat="43.31038" lon="-0.53149">
        <ele>181.34582519531</ele>
        <time>2016-07-30T06:57:34Z</time>
      </trkpt>
      <trkpt lat="43.31087" lon="-0.53118">
        <ele>177.98120117188</ele>
        <time>2016-07-30T06:57:43Z</time>
      </trkpt>
      <trkpt lat="43.31125" lon="-0.53086">
        <ele>174.13586425781</ele>
        <time>2016-07-30T06:57:53Z</time>
      </trkpt>
      <trkpt lat="43.31165" lon="-0.5304">
        <ele>171.73266601562</ele>
        <time>2016-07-30T06:58:05Z</time>
      </trkpt>
      <trkpt lat="43.31172" lon="-0.53032">
        <ele>171.73266601562</ele>
        <time>2016-07-30T06:58:07Z</time>
      </trkpt>
      <trkpt lat="43.31221" lon="-0.52987">
        <ele>168.84875488281</ele>
        <time>2016-07-30T06:58:19Z</time>
      </trkpt>
      <trkpt lat="43.31238" lon="-0.52965">
        <ele>166.92602539062</ele>
        <time>2016-07-30T06:58:23Z</time>
      </trkpt>
      <trkpt lat="43.31263" lon="-0.52928">
        <ele>164.04211425781</ele>
        <time>2016-07-30T06:58:29Z</time>
      </trkpt>
      <trkpt lat="43.31282" lon="-0.52901">
        <ele>160.19689941406</ele>
        <time>2016-07-30T06:58:33Z</time>
      </trkpt>
      <trkpt lat="43.31297" lon="-0.52884">
        <ele>158.75476074219</ele>
        <time>2016-07-30T06:58:36Z</time>
      </trkpt>
      <trkpt lat="43.31329" lon="-0.52847">
        <ele>155.39025878906</ele>
        <time>2016-07-30T06:58:43Z</time>
      </trkpt>
      <trkpt lat="43.31338" lon="-0.52837">
        <ele>155.39025878906</ele>
        <time>2016-07-30T06:58:46Z</time>
      </trkpt>
      <trkpt lat="43.31349" lon="-0.52825">
        <ele>154.42895507812</ele>
        <time>2016-07-30T06:58:49Z</time>
      </trkpt>
      <trkpt lat="43.31358" lon="-0.52809">
        <ele>153.46765136719</ele>
        <time>2016-07-30T06:58:52Z</time>
      </trkpt>
      <trkpt lat="43.31362" lon="-0.52803">
        <ele>153.94836425781</ele>
        <time>2016-07-30T06:58:53Z</time>
      </trkpt>
      <trkpt lat="43.31402" lon="-0.52756">
        <ele>151.06420898438</ele>
        <time>2016-07-30T06:59:04Z</time>
      </trkpt>
      <trkpt lat="43.3141" lon="-0.52747">
        <ele>149.62231445312</ele>
        <time>2016-07-30T06:59:06Z</time>
      </trkpt>
      <trkpt lat="43.31423" lon="-0.52733">
        <ele>148.18041992188</ele>
        <time>2016-07-30T06:59:09Z</time>
      </trkpt>
      <trkpt lat="43.31445" lon="-0.52711">
        <ele>146.2578125</ele>
        <time>2016-07-30T06:59:14Z</time>
      </trkpt>
      <trkpt lat="43.31495" lon="-0.52647">
        <ele>144.81579589844</ele>
        <time>2016-07-30T06:59:26Z</time>
      </trkpt>
      <trkpt lat="43.31518" lon="-0.52623">
        <ele>143.85437011719</ele>
        <time>2016-07-30T06:59:31Z</time>
      </trkpt>
      <trkpt lat="43.31565" lon="-0.52575">
        <ele>140.00915527344</ele>
        <time>2016-07-30T06:59:41Z</time>
      </trkpt>
      <trkpt lat="43.31581" lon="-0.52553">
        <ele>139.52844238281</ele>
        <time>2016-07-30T06:59:45Z</time>
      </trkpt>
      <trkpt lat="43.3161" lon="-0.52496">
        <ele>137.60583496094</ele>
        <time>2016-07-30T06:59:55Z</time>
      </trkpt>
      <trkpt lat="43.31632" lon="-0.5244">
        <ele>136.16394042969</ele>
        <time>2016-07-30T07:00:08Z</time>
      </trkpt>
      <trkpt lat="43.31654" lon="-0.52398">
        <ele>136.16394042969</ele>
        <time>2016-07-30T07:00:20Z</time>
      </trkpt>
      <trkpt lat="43.31674" lon="-0.5241">
        <ele>136.16394042969</ele>
        <time>2016-07-30T07:00:26Z</time>
      </trkpt>
      <trkpt lat="43.31737" lon="-0.52462">
        <ele>134.72192382812</ele>
        <time>2016-07-30T07:00:44Z</time>
      </trkpt>
      <trkpt lat="43.3179" lon="-0.52477">
        <ele>134.2412109375</ele>
        <time>2016-07-30T07:00:58Z</time>
      </trkpt>
      <trkpt lat="43.31876" lon="-0.52516">
        <ele>133.76049804688</ele>
        <time>2016-07-30T07:01:20Z</time>
      </trkpt>
      <trkpt lat="43.31887" lon="-0.5253">
        <ele>133.76049804688</ele>
        <time>2016-07-30T07:01:25Z</time>
      </trkpt>
      <trkpt lat="43.31893" lon="-0.52526">
        <ele>132.79931640625</ele>
        <time>2016-07-30T07:01:30Z</time>
      </trkpt>
      <trkpt lat="43.31892" lon="-0.52524">
        <ele>131.837890625</ele>
        <time>2016-07-30T07:01:31Z</time>
      </trkpt>
      <trkpt lat="43.31883" lon="-0.52489">
        <ele>130.39599609375</ele>
        <time>2016-07-30T07:01:45Z</time>
      </trkpt>
      <trkpt lat="43.31884" lon="-0.52483">
        <ele>130.39599609375</ele>
        <time>2016-07-30T07:01:58Z</time>
      </trkpt>
      <trkpt lat="43.31887" lon="-0.52472">
        <ele>130.39599609375</ele>
        <time>2016-07-30T07:02:05Z</time>
      </trkpt>
      <trkpt lat="43.31878" lon="-0.52468">
        <ele>130.87670898438</ele>
        <time>2016-07-30T07:02:12Z</time>
      </trkpt>
      <trkpt lat="43.31861" lon="-0.52441">
        <ele>131.837890625</ele>
        <time>2016-07-30T07:02:25Z</time>
      </trkpt>
      <trkpt lat="43.31866" lon="-0.52429">
        <ele>133.27990722656</ele>
        <time>2016-07-30T07:02:30Z</time>
      </trkpt>
      <trkpt lat="43.31882" lon="-0.52413">
        <ele>133.76049804688</ele>
        <time>2016-07-30T07:02:43Z</time>
      </trkpt>
      <trkpt lat="43.31888" lon="-0.52407">
        <ele>133.76049804688</ele>
        <time>2016-07-30T07:02:56Z</time>
      </trkpt>
      <trkpt lat="43.31895" lon="-0.52398">
        <ele>133.76049804688</ele>
        <time>2016-07-30T07:03:11Z</time>
      </trkpt>
      <trkpt lat="43.31897" lon="-0.52388">
        <ele>133.76049804688</ele>
        <time>2016-07-30T07:03:21Z</time>
      </trkpt>
      <trkpt lat="43.31898" lon="-0.52373">
        <ele>134.2412109375</ele>
        <time>2016-07-30T07:03:38Z</time>
      </trkpt>
      <trkpt lat="43.31901" lon="-0.5234">
        <ele>134.72192382812</ele>
        <time>2016-07-30T07:03:52Z</time>
      </trkpt>
      <trkpt lat="43.31899" lon="-0.52306">
        <ele>134.72192382812</ele>
        <time>2016-07-30T07:04:05Z</time>
      </trkpt>
      <trkpt lat="43.31898" lon="-0.52292">
        <ele>135.20251464844</ele>
        <time>2016-07-30T07:04:10Z</time>
      </trkpt>
      <trkpt lat="43.31899" lon="-0.5225">
        <ele>134.72192382812</ele>
        <time>2016-07-30T07:04:23Z</time>
      </trkpt>
      <trkpt lat="43.31891" lon="-0.52204">
        <ele>134.2412109375</ele>
        <time>2016-07-30T07:04:35Z</time>
      </trkpt>
      <trkpt lat="43.31884" lon="-0.52158">
        <ele>134.72192382812</ele>
        <time>2016-07-30T07:04:50Z</time>
      </trkpt>
      <trkpt lat="43.31878" lon="-0.52115">
        <ele>134.2412109375</ele>
        <time>2016-07-30T07:05:06Z</time>
      </trkpt>
      <trkpt lat="43.31875" lon="-0.52073">
        <ele>135.20251464844</ele>
        <time>2016-07-30T07:05:20Z</time>
      </trkpt>
      <trkpt lat="43.31884" lon="-0.52026">
        <ele>135.68310546875</ele>
        <time>2016-07-30T07:05:34Z</time>
      </trkpt>
      <trkpt lat="43.31884" lon="-0.51981">
        <ele>135.20251464844</ele>
        <time>2016-07-30T07:05:46Z</time>
      </trkpt>
      <trkpt lat="43.3191" lon="-0.51945">
        <ele>135.68310546875</ele>
        <time>2016-07-30T07:05:58Z</time>
      </trkpt>
      <trkpt lat="43.31943" lon="-0.51911">
        <ele>135.20251464844</ele>
        <time>2016-07-30T07:06:10Z</time>
      </trkpt>
      <trkpt lat="43.31957" lon="-0.51828">
        <ele>136.16394042969</ele>
        <time>2016-07-30T07:06:27Z</time>
      </trkpt>
      <trkpt lat="43.3197" lon="-0.51756">
        <ele>136.64465332031</ele>
        <time>2016-07-30T07:06:42Z</time>
      </trkpt>
      <trkpt lat="43.31958" lon="-0.51654">
        <ele>137.60583496094</ele>
        <time>2016-07-30T07:07:02Z</time>
      </trkpt>
      <trkpt lat="43.31941" lon="-0.51573">
        <ele>139.52844238281</ele>
        <time>2016-07-30T07:07:19Z</time>
      </trkpt>
      <trkpt lat="43.31949" lon="-0.515">
        <ele>140.48986816406</ele>
        <time>2016-07-30T07:07:36Z</time>
      </trkpt>
      <trkpt lat="43.3199" lon="-0.51444">
        <ele>143.37365722656</ele>
        <time>2016-07-30T07:07:53Z</time>
      </trkpt>
      <trkpt lat="43.31993" lon="-0.51442">
        <ele>143.37365722656</ele>
        <time>2016-07-30T07:07:54Z</time>
      </trkpt>
      <trkpt lat="43.32007" lon="-0.51443">
        <ele>145.29638671875</ele>
        <time>2016-07-30T07:07:59Z</time>
      </trkpt>
      <trkpt lat="43.32038" lon="-0.51466">
        <ele>147.69970703125</ele>
        <time>2016-07-30T07:08:15Z</time>
      </trkpt>
      <trkpt lat="43.32051" lon="-0.51496">
        <ele>147.21899414062</ele>
        <time>2016-07-30T07:08:23Z</time>
      </trkpt>
      <trkpt lat="43.32075" lon="-0.51523">
        <ele>146.73840332031</ele>
        <time>2016-07-30T07:08:30Z</time>
      </trkpt>
      <trkpt lat="43.32127" lon="-0.51575">
        <ele>144.81579589844</ele>
        <time>2016-07-30T07:08:44Z</time>
      </trkpt>
      <trkpt lat="43.32143" lon="-0.51589">
        <ele>143.37365722656</ele>
        <time>2016-07-30T07:08:47Z</time>
      </trkpt>
      <trkpt lat="43.32212" lon="-0.51652">
        <ele>141.45104980469</ele>
        <time>2016-07-30T07:09:01Z</time>
      </trkpt>
      <trkpt lat="43.3225" lon="-0.51698">
        <ele>140.00915527344</ele>
        <time>2016-07-30T07:09:11Z</time>
      </trkpt>
      <trkpt lat="43.32279" lon="-0.51754">
        <ele>138.08654785156</ele>
        <time>2016-07-30T07:09:20Z</time>
      </trkpt>
      <trkpt lat="43.32314" lon="-0.51809">
        <ele>136.64465332031</ele>
        <time>2016-07-30T07:09:29Z</time>
      </trkpt>
      <trkpt lat="43.32337" lon="-0.51831">
        <ele>136.64465332031</ele>
        <time>2016-07-30T07:09:34Z</time>
      </trkpt>
      <trkpt lat="43.32385" lon="-0.51875">
        <ele>136.64465332031</ele>
        <time>2016-07-30T07:09:47Z</time>
      </trkpt>
      <trkpt lat="43.32423" lon="-0.51906">
        <ele>139.52844238281</ele>
        <time>2016-07-30T07:10:00Z</time>
      </trkpt>
      <trkpt lat="43.3247" lon="-0.51943">
        <ele>141.93176269531</ele>
        <time>2016-07-30T07:10:16Z</time>
      </trkpt>
      <trkpt lat="43.32523" lon="-0.51983">
        <ele>141.93176269531</ele>
        <time>2016-07-30T07:10:32Z</time>
      </trkpt>
      <trkpt lat="43.3255" lon="-0.52009">
        <ele>140.48986816406</ele>
        <time>2016-07-30T07:10:39Z</time>
      </trkpt>
      <trkpt lat="43.32561" lon="-0.52026">
        <ele>140.00915527344</ele>
        <time>2016-07-30T07:10:42Z</time>
      </trkpt>
      <trkpt lat="43.32623" lon="-0.5213">
        <ele>136.64465332031</ele>
        <time>2016-07-30T07:10:58Z</time>
      </trkpt>
      <trkpt lat="43.3263" lon="-0.52142">
        <ele>136.64465332031</ele>
        <time>2016-07-30T07:11:00Z</time>
      </trkpt>
      <trkpt lat="43.32663" lon="-0.52185">
        <ele>137.12524414062</ele>
        <time>2016-07-30T07:11:09Z</time>
      </trkpt>
      <trkpt lat="43.32692" lon="-0.52213">
        <ele>136.64465332031</ele>
        <time>2016-07-30T07:11:16Z</time>
      </trkpt>
      <trkpt lat="43.32715" lon="-0.52231">
        <ele>136.16394042969</ele>
        <time>2016-07-30T07:11:21Z</time>
      </trkpt>
      <trkpt lat="43.3277" lon="-0.52266">
        <ele>136.16394042969</ele>
        <time>2016-07-30T07:11:32Z</time>
      </trkpt>
      <trkpt lat="43.32792" lon="-0.52278">
        <ele>136.16394042969</ele>
        <time>2016-07-30T07:11:37Z</time>
      </trkpt>
      <trkpt lat="43.32827" lon="-0.52294">
        <ele>138.08654785156</ele>
        <time>2016-07-30T07:11:48Z</time>
      </trkpt>
      <trkpt lat="43.32867" lon="-0.52294">
        <ele>140.48986816406</ele>
        <time>2016-07-30T07:12:00Z</time>
      </trkpt>
      <trkpt lat="43.32906" lon="-0.52293">
        <ele>142.41247558594</ele>
        <time>2016-07-30T07:12:13Z</time>
      </trkpt>
      <trkpt lat="43.32936" lon="-0.5232">
        <ele>145.29638671875</ele>
        <time>2016-07-30T07:12:26Z</time>
      </trkpt>
      <trkpt lat="43.32947" lon="-0.52367">
        <ele>145.77709960938</ele>
        <time>2016-07-30T07:12:39Z</time>
      </trkpt>
      <trkpt lat="43.32961" lon="-0.52433">
        <ele>143.85437011719</ele>
        <time>2016-07-30T07:12:52Z</time>
      </trkpt>
      <trkpt lat="43.32966" lon="-0.52456">
        <ele>143.37365722656</ele>
        <time>2016-07-30T07:12:56Z</time>
      </trkpt>
      <trkpt lat="43.32974" lon="-0.52487">
        <ele>142.89306640625</ele>
        <time>2016-07-30T07:13:01Z</time>
      </trkpt>
      <trkpt lat="43.33021" lon="-0.52598">
        <ele>139.52844238281</ele>
        <time>2016-07-30T07:13:18Z</time>
      </trkpt>
      <trkpt lat="43.33027" lon="-0.52613">
        <ele>139.0478515625</ele>
        <time>2016-07-30T07:13:20Z</time>
      </trkpt>
      <trkpt lat="43.33059" lon="-0.52696">
        <ele>136.64465332031</ele>
        <time>2016-07-30T07:13:32Z</time>
      </trkpt>
      <trkpt lat="43.33086" lon="-0.52775">
        <ele>137.12524414062</ele>
        <time>2016-07-30T07:13:46Z</time>
      </trkpt>
      <trkpt lat="43.33114" lon="-0.52816">
        <ele>137.60583496094</ele>
        <time>2016-07-30T07:13:55Z</time>
      </trkpt>
      <trkpt lat="43.3316" lon="-0.52886">
        <ele>138.08654785156</ele>
        <time>2016-07-30T07:14:09Z</time>
      </trkpt>
      <trkpt lat="43.33197" lon="-0.52941">
        <ele>138.08654785156</ele>
        <time>2016-07-30T07:14:20Z</time>
      </trkpt>
      <trkpt lat="43.33214" lon="-0.52954">
        <ele>138.08654785156</ele>
        <time>2016-07-30T07:14:24Z</time>
      </trkpt>
      <trkpt lat="43.33262" lon="-0.53001">
        <ele>138.56726074219</ele>
        <time>2016-07-30T07:14:36Z</time>
      </trkpt>
      <trkpt lat="43.33303" lon="-0.53062">
        <ele>140.97045898438</ele>
        <time>2016-07-30T07:14:52Z</time>
      </trkpt>
      <trkpt lat="43.33309" lon="-0.53074">
        <ele>140.00915527344</ele>
        <time>2016-07-30T07:15:01Z</time>
      </trkpt>
      <trkpt lat="43.33306" lon="-0.53074">
        <ele>140.48986816406</ele>
        <time>2016-07-30T07:15:41Z</time>
      </trkpt>
      <trkpt lat="43.33308" lon="-0.53084">
        <ele>140.48986816406</ele>
        <time>2016-07-30T07:15:46Z</time>
      </trkpt>
      <trkpt lat="43.3333" lon="-0.53172">
        <ele>138.56726074219</ele>
        <time>2016-07-30T07:16:03Z</time>
      </trkpt>
      <trkpt lat="43.33366" lon="-0.53214">
        <ele>139.52844238281</ele>
        <time>2016-07-30T07:16:14Z</time>
      </trkpt>
      <trkpt lat="43.33398" lon="-0.53213">
        <ele>137.60583496094</ele>
        <time>2016-07-30T07:16:21Z</time>
      </trkpt>
      <trkpt lat="43.3342" lon="-0.53205">
        <ele>136.64465332031</ele>
        <time>2016-07-30T07:16:25Z</time>
      </trkpt>
      <trkpt lat="43.33439" lon="-0.53194">
        <ele>137.60583496094</ele>
        <time>2016-07-30T07:16:29Z</time>
      </trkpt>
      <trkpt lat="43.33476" lon="-0.53203">
        <ele>137.60583496094</ele>
        <time>2016-07-30T07:16:40Z</time>
      </trkpt>
      <trkpt lat="43.33471" lon="-0.53221">
        <ele>137.12524414062</ele>
        <time>2016-07-30T07:16:46Z</time>
      </trkpt>
      <trkpt lat="43.3346" lon="-0.53236">
        <ele>136.64465332031</ele>
        <time>2016-07-30T07:16:51Z</time>
      </trkpt>
      <trkpt lat="43.33475" lon="-0.53244">
        <ele>137.60583496094</ele>
        <time>2016-07-30T07:17:00Z</time>
      </trkpt>
      <trkpt lat="43.3348" lon="-0.53238">
        <ele>138.56726074219</ele>
        <time>2016-07-30T07:17:03Z</time>
      </trkpt>
      <trkpt lat="43.33481" lon="-0.53236">
        <ele>139.0478515625</ele>
        <time>2016-07-30T07:17:04Z</time>
      </trkpt>
      <trkpt lat="43.33514" lon="-0.53231">
        <ele>141.45104980469</ele>
        <time>2016-07-30T07:17:20Z</time>
      </trkpt>
      <trkpt lat="43.3353" lon="-0.53233">
        <ele>143.37365722656</ele>
        <time>2016-07-30T07:17:28Z</time>
      </trkpt>
      <trkpt lat="43.3356" lon="-0.53236">
        <ele>145.77709960938</ele>
        <time>2016-07-30T07:17:43Z</time>
      </trkpt>
      <trkpt lat="43.33579" lon="-0.53242">
        <ele>147.69970703125</ele>
        <time>2016-07-30T07:17:53Z</time>
      </trkpt>
      <trkpt lat="43.33586" lon="-0.53244">
        <ele>149.62231445312</ele>
        <time>2016-07-30T07:17:57Z</time>
      </trkpt>
      <trkpt lat="43.33607" lon="-0.53244">
        <ele>151.544921875</ele>
        <time>2016-07-30T07:18:10Z</time>
      </trkpt>
      <trkpt lat="43.33623" lon="-0.5325">
        <ele>154.90954589844</ele>
        <time>2016-07-30T07:18:22Z</time>
      </trkpt>
      <trkpt lat="43.3363" lon="-0.53253">
        <ele>155.87097167969</ele>
        <time>2016-07-30T07:18:27Z</time>
      </trkpt>
      <trkpt lat="43.33651" lon="-0.53264">
        <ele>158.27416992188</ele>
        <time>2016-07-30T07:18:40Z</time>
      </trkpt>
      <trkpt lat="43.33692" lon="-0.53304">
        <ele>159.71618652344</ele>
        <time>2016-07-30T07:19:02Z</time>
      </trkpt>
      <trkpt lat="43.33721" lon="-0.53313">
        <ele>162.11950683594</ele>
        <time>2016-07-30T07:19:18Z</time>
      </trkpt>
      <trkpt lat="43.3375" lon="-0.53305">
        <ele>165.48413085938</ele>
        <time>2016-07-30T07:19:35Z</time>
      </trkpt>
      <trkpt lat="43.33771" lon="-0.5331">
        <ele>166.4453125</ele>
        <time>2016-07-30T07:19:47Z</time>
      </trkpt>
      <trkpt lat="43.33781" lon="-0.53314">
        <ele>167.40673828125</ele>
        <time>2016-07-30T07:19:53Z</time>
      </trkpt>
      <trkpt lat="43.33801" lon="-0.53312">
        <ele>169.81005859375</ele>
        <time>2016-07-30T07:20:05Z</time>
      </trkpt>
      <trkpt lat="43.33819" lon="-0.5331">
        <ele>172.69396972656</ele>
        <time>2016-07-30T07:20:17Z</time>
      </trkpt>
      <trkpt lat="43.33828" lon="-0.5331">
        <ele>174.61657714844</ele>
        <time>2016-07-30T07:20:22Z</time>
      </trkpt>
      <trkpt lat="43.33852" lon="-0.53307">
        <ele>177.50061035156</ele>
        <time>2016-07-30T07:20:37Z</time>
      </trkpt>
      <trkpt lat="43.3386" lon="-0.53307">
        <ele>178.4619140625</ele>
        <time>2016-07-30T07:20:43Z</time>
      </trkpt>
      <trkpt lat="43.33891" lon="-0.53311">
        <ele>179.90380859375</ele>
        <time>2016-07-30T07:20:58Z</time>
      </trkpt>
      <trkpt lat="43.33915" lon="-0.53319">
        <ele>181.82641601562</ele>
        <time>2016-07-30T07:21:12Z</time>
      </trkpt>
      <trkpt lat="43.33943" lon="-0.53323">
        <ele>183.7490234375</ele>
        <time>2016-07-30T07:21:26Z</time>
      </trkpt>
      <trkpt lat="43.33958" lon="-0.53314">
        <ele>186.63317871094</ele>
        <time>2016-07-30T07:21:36Z</time>
      </trkpt>
      <trkpt lat="43.33959" lon="-0.53314">
        <ele>186.63317871094</ele>
        <time>2016-07-30T07:21:37Z</time>
      </trkpt>
      <trkpt lat="43.33982" lon="-0.53316">
        <ele>188.55578613281</ele>
        <time>2016-07-30T07:21:50Z</time>
      </trkpt>
      <trkpt lat="43.34009" lon="-0.53319">
        <ele>191.43957519531</ele>
        <time>2016-07-30T07:22:05Z</time>
      </trkpt>
      <trkpt lat="43.3403" lon="-0.53318">
        <ele>192.88171386719</ele>
        <time>2016-07-30T07:22:18Z</time>
      </trkpt>
      <trkpt lat="43.3405" lon="-0.53309">
        <ele>195.28491210938</ele>
        <time>2016-07-30T07:22:32Z</time>
      </trkpt>
      <trkpt lat="43.34057" lon="-0.53298">
        <ele>195.765625</ele>
        <time>2016-07-30T07:22:38Z</time>
      </trkpt>
      <trkpt lat="43.34062" lon="-0.53292">
        <ele>196.72692871094</ele>
        <time>2016-07-30T07:22:42Z</time>
      </trkpt>
      <trkpt lat="43.34067" lon="-0.53284">
        <ele>198.1689453125</ele>
        <time>2016-07-30T07:22:47Z</time>
      </trkpt>
      <trkpt lat="43.34086" lon="-0.53275">
        <ele>201.53356933594</ele>
        <time>2016-07-30T07:23:00Z</time>
      </trkpt>
      <trkpt lat="43.34101" lon="-0.53261">
        <ele>202.97546386719</ele>
        <time>2016-07-30T07:23:10Z</time>
      </trkpt>
      <trkpt lat="43.3411" lon="-0.53254">
        <ele>203.93688964844</ele>
        <time>2016-07-30T07:23:17Z</time>
      </trkpt>
      <trkpt lat="43.34123" lon="-0.53231">
        <ele>207.30139160156</ele>
        <time>2016-07-30T07:23:32Z</time>
      </trkpt>
      <trkpt lat="43.34126" lon="-0.53226">
        <ele>207.78210449219</ele>
        <time>2016-07-30T07:23:35Z</time>
      </trkpt>
      <trkpt lat="43.34137" lon="-0.53201">
        <ele>211.62744140625</ele>
        <time>2016-07-30T07:23:50Z</time>
      </trkpt>
      <trkpt lat="43.3414" lon="-0.53193">
        <ele>212.10803222656</ele>
        <time>2016-07-30T07:23:55Z</time>
      </trkpt>
      <trkpt lat="43.34146" lon="-0.5319">
        <ele>212.10803222656</ele>
        <time>2016-07-30T07:23:59Z</time>
      </trkpt>
      <trkpt lat="43.34165" lon="-0.53188">
        <ele>214.51123046875</ele>
        <time>2016-07-30T07:24:13Z</time>
      </trkpt>
      <trkpt lat="43.34176" lon="-0.53184">
        <ele>215.47265625</ele>
        <time>2016-07-30T07:24:20Z</time>
      </trkpt>
      <trkpt lat="43.34196" lon="-0.53166">
        <ele>214.99194335938</ele>
        <time>2016-07-30T07:24:33Z</time>
      </trkpt>
      <trkpt lat="43.34209" lon="-0.53152">
        <ele>214.99194335938</ele>
        <time>2016-07-30T07:24:38Z</time>
      </trkpt>
      <trkpt lat="43.34223" lon="-0.53136">
        <ele>214.03063964844</ele>
        <time>2016-07-30T07:24:42Z</time>
      </trkpt>
      <trkpt lat="43.3426" lon="-0.53092">
        <ele>214.03063964844</ele>
        <time>2016-07-30T07:24:54Z</time>
      </trkpt>
      <trkpt lat="43.34272" lon="-0.53065">
        <ele>214.03063964844</ele>
        <time>2016-07-30T07:24:59Z</time>
      </trkpt>
      <trkpt lat="43.34292" lon="-0.53031">
        <ele>216.91467285156</ele>
        <time>2016-07-30T07:25:09Z</time>
      </trkpt>
      <trkpt lat="43.34301" lon="-0.5302">
        <ele>216.43395996094</ele>
        <time>2016-07-30T07:25:13Z</time>
      </trkpt>
      <trkpt lat="43.34314" lon="-0.53014">
        <ele>215.95324707031</ele>
        <time>2016-07-30T07:25:16Z</time>
      </trkpt>
      <trkpt lat="43.34352" lon="-0.52997">
        <ele>214.03063964844</ele>
        <time>2016-07-30T07:25:24Z</time>
      </trkpt>
      <trkpt lat="43.34367" lon="-0.52995">
        <ele>213.55004882812</ele>
        <time>2016-07-30T07:25:27Z</time>
      </trkpt>
      <trkpt lat="43.34384" lon="-0.52995">
        <ele>213.0693359375</ele>
        <time>2016-07-30T07:25:30Z</time>
      </trkpt>
      <trkpt lat="43.344" lon="-0.5301">
        <ele>213.55004882812</ele>
        <time>2016-07-30T07:25:35Z</time>
      </trkpt>
      <trkpt lat="43.34424" lon="-0.53066">
        <ele>216.43395996094</ele>
        <time>2016-07-30T07:25:48Z</time>
      </trkpt>
      <trkpt lat="43.34428" lon="-0.531">
        <ele>216.43395996094</ele>
        <time>2016-07-30T07:25:55Z</time>
      </trkpt>
      <trkpt lat="43.34427" lon="-0.53118">
        <ele>215.95324707031</ele>
        <time>2016-07-30T07:25:58Z</time>
      </trkpt>
      <trkpt lat="43.34426" lon="-0.53144">
        <ele>214.99194335938</ele>
        <time>2016-07-30T07:26:03Z</time>
      </trkpt>
      <trkpt lat="43.3444" lon="-0.53206">
        <ele>214.51123046875</ele>
        <time>2016-07-30T07:26:14Z</time>
      </trkpt>
      <trkpt lat="43.34461" lon="-0.53264">
        <ele>214.99194335938</ele>
        <time>2016-07-30T07:26:25Z</time>
      </trkpt>
      <trkpt lat="43.34463" lon="-0.5327">
        <ele>215.47265625</ele>
        <time>2016-07-30T07:26:26Z</time>
      </trkpt>
      <trkpt lat="43.34481" lon="-0.53306">
        <ele>216.43395996094</ele>
        <time>2016-07-30T07:26:34Z</time>
      </trkpt>
      <trkpt lat="43.34494" lon="-0.53355">
        <ele>215.47265625</ele>
        <time>2016-07-30T07:26:45Z</time>
      </trkpt>
      <trkpt lat="43.34496" lon="-0.53379">
        <ele>214.03063964844</ele>
        <time>2016-07-30T07:26:48Z</time>
      </trkpt>
      <trkpt lat="43.34498" lon="-0.53389">
        <ele>214.03063964844</ele>
        <time>2016-07-30T07:26:49Z</time>
      </trkpt>
      <trkpt lat="43.34507" lon="-0.5342">
        <ele>213.0693359375</ele>
        <time>2016-07-30T07:26:52Z</time>
      </trkpt>
      <trkpt lat="43.34525" lon="-0.53465">
        <ele>213.0693359375</ele>
        <time>2016-07-30T07:26:58Z</time>
      </trkpt>
      <trkpt lat="43.34534" lon="-0.53535">
        <ele>214.03063964844</ele>
        <time>2016-07-30T07:27:10Z</time>
      </trkpt>
      <trkpt lat="43.34532" lon="-0.53555">
        <ele>214.03063964844</ele>
        <time>2016-07-30T07:27:13Z</time>
      </trkpt>
      <trkpt lat="43.34531" lon="-0.53614">
        <ele>214.51123046875</ele>
        <time>2016-07-30T07:27:24Z</time>
      </trkpt>
      <trkpt lat="43.34534" lon="-0.53643">
        <ele>214.03063964844</ele>
        <time>2016-07-30T07:27:36Z</time>
      </trkpt>
      <trkpt lat="43.3453" lon="-0.53693">
        <ele>212.58862304688</ele>
        <time>2016-07-30T07:27:46Z</time>
      </trkpt>
      <trkpt lat="43.3453" lon="-0.53706">
        <ele>212.10803222656</ele>
        <time>2016-07-30T07:27:48Z</time>
      </trkpt>
      <trkpt lat="43.34526" lon="-0.53761">
        <ele>209.70483398438</ele>
        <time>2016-07-30T07:27:55Z</time>
      </trkpt>
      <trkpt lat="43.34526" lon="-0.53786">
        <ele>208.74340820312</ele>
        <time>2016-07-30T07:27:57Z</time>
      </trkpt>
      <trkpt lat="43.34509" lon="-0.53852">
        <ele>207.30139160156</ele>
        <time>2016-07-30T07:28:05Z</time>
      </trkpt>
      <trkpt lat="43.34511" lon="-0.53866">
        <ele>207.30139160156</ele>
        <time>2016-07-30T07:28:07Z</time>
      </trkpt>
      <trkpt lat="43.34515" lon="-0.53887">
        <ele>206.82067871094</ele>
        <time>2016-07-30T07:28:10Z</time>
      </trkpt>
      <trkpt lat="43.34523" lon="-0.53926">
        <ele>203.93688964844</ele>
        <time>2016-07-30T07:28:15Z</time>
      </trkpt>
      <trkpt lat="43.34525" lon="-0.53935">
        <ele>203.45617675781</ele>
        <time>2016-07-30T07:28:16Z</time>
      </trkpt>
      <trkpt lat="43.34529" lon="-0.53959">
        <ele>200.572265625</ele>
        <time>2016-07-30T07:28:19Z</time>
      </trkpt>
      <trkpt lat="43.3453" lon="-0.53967">
        <ele>199.13012695312</ele>
        <time>2016-07-30T07:28:20Z</time>
      </trkpt>
      <trkpt lat="43.34521" lon="-0.5401">
        <ele>197.20751953125</ele>
        <time>2016-07-30T07:28:26Z</time>
      </trkpt>
      <trkpt lat="43.34508" lon="-0.54035">
        <ele>194.32373046875</ele>
        <time>2016-07-30T07:28:30Z</time>
      </trkpt>
      <trkpt lat="43.3448" lon="-0.5406">
        <ele>190.47839355469</ele>
        <time>2016-07-30T07:28:35Z</time>
      </trkpt>
      <trkpt lat="43.34468" lon="-0.54066">
        <ele>188.55578613281</ele>
        <time>2016-07-30T07:28:37Z</time>
      </trkpt>
      <trkpt lat="43.34459" lon="-0.54073">
        <ele>186.15246582031</ele>
        <time>2016-07-30T07:28:39Z</time>
      </trkpt>
      <trkpt lat="43.34459" lon="-0.5409">
        <ele>184.22985839844</ele>
        <time>2016-07-30T07:28:44Z</time>
      </trkpt>
      <trkpt lat="43.3449" lon="-0.54118">
        <ele>181.82641601562</ele>
        <time>2016-07-30T07:28:50Z</time>
      </trkpt>
      <trkpt lat="43.34532" lon="-0.54134">
        <ele>178.94262695312</ele>
        <time>2016-07-30T07:28:56Z</time>
      </trkpt>
      <trkpt lat="43.34566" lon="-0.54159">
        <ele>176.53930664062</ele>
        <time>2016-07-30T07:29:01Z</time>
      </trkpt>
      <trkpt lat="43.34575" lon="-0.54167">
        <ele>173.6552734375</ele>
        <time>2016-07-30T07:29:03Z</time>
      </trkpt>
      <trkpt lat="43.34572" lon="-0.54197">
        <ele>171.25207519531</ele>
        <time>2016-07-30T07:29:10Z</time>
      </trkpt>
      <trkpt lat="43.34568" lon="-0.54202">
        <ele>171.25207519531</ele>
        <time>2016-07-30T07:29:11Z</time>
      </trkpt>
      <trkpt lat="43.34562" lon="-0.54253">
        <ele>167.88732910156</ele>
        <time>2016-07-30T07:29:21Z</time>
      </trkpt>
      <trkpt lat="43.34593" lon="-0.54263">
        <ele>165.48413085938</ele>
        <time>2016-07-30T07:29:27Z</time>
      </trkpt>
      <trkpt lat="43.34652" lon="-0.54241">
        <ele>162.11950683594</ele>
        <time>2016-07-30T07:29:35Z</time>
      </trkpt>
      <trkpt lat="43.34689" lon="-0.54221">
        <ele>157.31286621094</ele>
        <time>2016-07-30T07:29:41Z</time>
      </trkpt>
      <trkpt lat="43.34694" lon="-0.54217">
        <ele>156.83215332031</ele>
        <time>2016-07-30T07:29:42Z</time>
      </trkpt>
      <trkpt lat="43.34706" lon="-0.54223">
        <ele>153.46765136719</ele>
        <time>2016-07-30T07:29:46Z</time>
      </trkpt>
      <trkpt lat="43.34707" lon="-0.54233">
        <ele>152.98693847656</ele>
        <time>2016-07-30T07:29:48Z</time>
      </trkpt>
      <trkpt lat="43.34706" lon="-0.5424">
        <ele>152.98693847656</ele>
        <time>2016-07-30T07:29:49Z</time>
      </trkpt>
      <trkpt lat="43.34697" lon="-0.54281">
        <ele>148.18041992188</ele>
        <time>2016-07-30T07:29:54Z</time>
      </trkpt>
      <trkpt lat="43.34695" lon="-0.5429">
        <ele>147.21899414062</ele>
        <time>2016-07-30T07:29:55Z</time>
      </trkpt>
      <trkpt lat="43.34688" lon="-0.54329">
        <ele>143.37365722656</ele>
        <time>2016-07-30T07:29:59Z</time>
      </trkpt>
      <trkpt lat="43.34679" lon="-0.54356">
        <ele>141.93176269531</ele>
        <time>2016-07-30T07:30:02Z</time>
      </trkpt>
      <trkpt lat="43.3467" lon="-0.54377">
        <ele>140.48986816406</ele>
        <time>2016-07-30T07:30:05Z</time>
      </trkpt>
      <trkpt lat="43.34669" lon="-0.5439">
        <ele>139.0478515625</ele>
        <time>2016-07-30T07:30:07Z</time>
      </trkpt>
      <trkpt lat="43.34671" lon="-0.54418">
        <ele>138.08654785156</ele>
        <time>2016-07-30T07:30:11Z</time>
      </trkpt>
      <trkpt lat="43.34667" lon="-0.54443">
        <ele>138.56726074219</ele>
        <time>2016-07-30T07:30:15Z</time>
      </trkpt>
      <trkpt lat="43.34666" lon="-0.54456">
        <ele>139.0478515625</ele>
        <time>2016-07-30T07:30:17Z</time>
      </trkpt>
      <trkpt lat="43.34659" lon="-0.54525">
        <ele>140.97045898438</ele>
        <time>2016-07-30T07:30:30Z</time>
      </trkpt>
      <trkpt lat="43.34657" lon="-0.54546">
        <ele>140.48986816406</ele>
        <time>2016-07-30T07:30:35Z</time>
      </trkpt>
      <trkpt lat="43.34654" lon="-0.54565">
        <ele>140.00915527344</ele>
        <time>2016-07-30T07:30:39Z</time>
      </trkpt>
      <trkpt lat="43.34645" lon="-0.54612">
        <ele>140.00915527344</ele>
        <time>2016-07-30T07:30:50Z</time>
      </trkpt>
      <trkpt lat="43.34659" lon="-0.54615">
        <ele>140.97045898438</ele>
        <time>2016-07-30T07:30:58Z</time>
      </trkpt>
      <trkpt lat="43.3466" lon="-0.54613">
        <ele>140.97045898438</ele>
        <time>2016-07-30T07:30:59Z</time>
      </trkpt>
      <trkpt lat="43.34681" lon="-0.54588">
        <ele>141.93176269531</ele>
        <time>2016-07-30T07:31:11Z</time>
      </trkpt>
      <trkpt lat="43.347" lon="-0.54561">
        <ele>143.85437011719</ele>
        <time>2016-07-30T07:31:24Z</time>
      </trkpt>
      <trkpt lat="43.34727" lon="-0.5453">
        <ele>146.73840332031</ele>
        <time>2016-07-30T07:31:38Z</time>
      </trkpt>
      <trkpt lat="43.34756" lon="-0.54493">
        <ele>150.10302734375</ele>
        <time>2016-07-30T07:31:57Z</time>
      </trkpt>
      <trkpt lat="43.34785" lon="-0.54466">
        <ele>152.98693847656</ele>
        <time>2016-07-30T07:32:17Z</time>
      </trkpt>
      <trkpt lat="43.34807" lon="-0.54436">
        <ele>156.3515625</ele>
        <time>2016-07-30T07:32:34Z</time>
      </trkpt>
      <trkpt lat="43.34835" lon="-0.54403">
        <ele>157.79357910156</ele>
        <time>2016-07-30T07:32:53Z</time>
      </trkpt>
      <trkpt lat="43.34873" lon="-0.54373">
        <ele>158.75476074219</ele>
        <time>2016-07-30T07:33:10Z</time>
      </trkpt>
      <trkpt lat="43.34912" lon="-0.54359">
        <ele>162.11950683594</ele>
        <time>2016-07-30T07:33:27Z</time>
      </trkpt>
      <trkpt lat="43.34956" lon="-0.54299">
        <ele>164.52270507812</ele>
        <time>2016-07-30T07:33:52Z</time>
      </trkpt>
      <trkpt lat="43.34982" lon="-0.54266">
        <ele>167.88732910156</ele>
        <time>2016-07-30T07:34:12Z</time>
      </trkpt>
      <trkpt lat="43.35" lon="-0.54243">
        <ele>170.29064941406</ele>
        <time>2016-07-30T07:34:27Z</time>
      </trkpt>
      <trkpt lat="43.35009" lon="-0.54215">
        <ele>173.6552734375</ele>
        <time>2016-07-30T07:34:43Z</time>
      </trkpt>
      <trkpt lat="43.35001" lon="-0.54186">
        <ele>177.02001953125</ele>
        <time>2016-07-30T07:34:57Z</time>
      </trkpt>
      <trkpt lat="43.34988" lon="-0.54135">
        <ele>177.50061035156</ele>
        <time>2016-07-30T07:35:14Z</time>
      </trkpt>
      <trkpt lat="43.34995" lon="-0.54049">
        <ele>177.98120117188</ele>
        <time>2016-07-30T07:35:33Z</time>
      </trkpt>
      <trkpt lat="43.34996" lon="-0.53987">
        <ele>179.90380859375</ele>
        <time>2016-07-30T07:35:47Z</time>
      </trkpt>
      <trkpt lat="43.34973" lon="-0.53905">
        <ele>177.98120117188</ele>
        <time>2016-07-30T07:36:04Z</time>
      </trkpt>
      <trkpt lat="43.34969" lon="-0.53823">
        <ele>177.02001953125</ele>
        <time>2016-07-30T07:36:19Z</time>
      </trkpt>
      <trkpt lat="43.34974" lon="-0.53781">
        <ele>179.90380859375</ele>
        <time>2016-07-30T07:36:31Z</time>
      </trkpt>
      <trkpt lat="43.34982" lon="-0.5377">
        <ele>182.78784179688</ele>
        <time>2016-07-30T07:36:40Z</time>
      </trkpt>
      <trkpt lat="43.34997" lon="-0.53755">
        <ele>185.19116210938</ele>
        <time>2016-07-30T07:36:55Z</time>
      </trkpt>
      <trkpt lat="43.35013" lon="-0.53738">
        <ele>188.55578613281</ele>
        <time>2016-07-30T07:37:10Z</time>
      </trkpt>
      <trkpt lat="43.35029" lon="-0.5372">
        <ele>191.43957519531</ele>
        <time>2016-07-30T07:37:25Z</time>
      </trkpt>
      <trkpt lat="43.35029" lon="-0.53686">
        <ele>192.88171386719</ele>
        <time>2016-07-30T07:37:41Z</time>
      </trkpt>
      <trkpt lat="43.35007" lon="-0.53619">
        <ele>195.28491210938</ele>
        <time>2016-07-30T07:38:01Z</time>
      </trkpt>
      <trkpt lat="43.35003" lon="-0.53536">
        <ele>197.20751953125</ele>
        <time>2016-07-30T07:38:21Z</time>
      </trkpt>
      <trkpt lat="43.35003" lon="-0.53449">
        <ele>197.68823242188</ele>
        <time>2016-07-30T07:38:39Z</time>
      </trkpt>
      <trkpt lat="43.34995" lon="-0.5337">
        <ele>200.09167480469</ele>
        <time>2016-07-30T07:38:56Z</time>
      </trkpt>
      <trkpt lat="43.34979" lon="-0.53333">
        <ele>201.05285644531</ele>
        <time>2016-07-30T07:39:06Z</time>
      </trkpt>
      <trkpt lat="43.3497" lon="-0.5331">
        <ele>201.53356933594</ele>
        <time>2016-07-30T07:39:11Z</time>
      </trkpt>
      <trkpt lat="43.34968" lon="-0.53298">
        <ele>203.45617675781</ele>
        <time>2016-07-30T07:39:14Z</time>
      </trkpt>
      <trkpt lat="43.34965" lon="-0.53254">
        <ele>204.41748046875</ele>
        <time>2016-07-30T07:39:29Z</time>
      </trkpt>
      <trkpt lat="43.34948" lon="-0.53217">
        <ele>203.45617675781</ele>
        <time>2016-07-30T07:39:40Z</time>
      </trkpt>
      <trkpt lat="43.34922" lon="-0.53177">
        <ele>203.45617675781</ele>
        <time>2016-07-30T07:39:48Z</time>
      </trkpt>
      <trkpt lat="43.34903" lon="-0.53169">
        <ele>202.49487304688</ele>
        <time>2016-07-30T07:39:52Z</time>
      </trkpt>
      <trkpt lat="43.3487" lon="-0.53168">
        <ele>200.09167480469</ele>
        <time>2016-07-30T07:39:57Z</time>
      </trkpt>
      <trkpt lat="43.34855" lon="-0.53167">
        <ele>199.13012695312</ele>
        <time>2016-07-30T07:39:59Z</time>
      </trkpt>
      <trkpt lat="43.34826" lon="-0.53164">
        <ele>197.68823242188</ele>
        <time>2016-07-30T07:40:03Z</time>
      </trkpt>
      <trkpt lat="43.34807" lon="-0.53163">
        <ele>198.64953613281</ele>
        <time>2016-07-30T07:40:07Z</time>
      </trkpt>
      <trkpt lat="43.3477" lon="-0.53146">
        <ele>201.53356933594</ele>
        <time>2016-07-30T07:40:22Z</time>
      </trkpt>
      <trkpt lat="43.34765" lon="-0.53145">
        <ele>202.49487304688</ele>
        <time>2016-07-30T07:40:24Z</time>
      </trkpt>
      <trkpt lat="43.34761" lon="-0.53143">
        <ele>202.49487304688</ele>
        <time>2016-07-30T07:40:26Z</time>
      </trkpt>
      <trkpt lat="43.34758" lon="-0.53133">
        <ele>202.97546386719</ele>
        <time>2016-07-30T07:40:30Z</time>
      </trkpt>
      <trkpt lat="43.34737" lon="-0.531">
        <ele>204.89807128906</ele>
        <time>2016-07-30T07:40:43Z</time>
      </trkpt>
      <trkpt lat="43.34735" lon="-0.53096">
        <ele>205.85949707031</ele>
        <time>2016-07-30T07:40:45Z</time>
      </trkpt>
      <trkpt lat="43.34715" lon="-0.53068">
        <ele>208.26281738281</ele>
        <time>2016-07-30T07:41:00Z</time>
      </trkpt>
      <trkpt lat="43.3469" lon="-0.53051">
        <ele>209.70483398438</ele>
        <time>2016-07-30T07:41:13Z</time>
      </trkpt>
      <trkpt lat="43.34685" lon="-0.53046">
        <ele>210.666015625</ele>
        <time>2016-07-30T07:41:16Z</time>
      </trkpt>
      <trkpt lat="43.3466" lon="-0.53021">
        <ele>211.62744140625</ele>
        <time>2016-07-30T07:41:29Z</time>
      </trkpt>
      <trkpt lat="43.34636" lon="-0.53006">
        <ele>212.58862304688</ele>
        <time>2016-07-30T07:41:40Z</time>
      </trkpt>
      <trkpt lat="43.34617" lon="-0.52978">
        <ele>213.0693359375</ele>
        <time>2016-07-30T07:41:51Z</time>
      </trkpt>
      <trkpt lat="43.3461" lon="-0.52971">
        <ele>214.03063964844</ele>
        <time>2016-07-30T07:41:55Z</time>
      </trkpt>
      <trkpt lat="43.34591" lon="-0.52955">
        <ele>214.51123046875</ele>
        <time>2016-07-30T07:42:04Z</time>
      </trkpt>
      <trkpt lat="43.34564" lon="-0.52927">
        <ele>215.95324707031</ele>
        <time>2016-07-30T07:42:16Z</time>
      </trkpt>
      <trkpt lat="43.34549" lon="-0.52915">
        <ele>216.91467285156</ele>
        <time>2016-07-30T07:42:23Z</time>
      </trkpt>
      <trkpt lat="43.34539" lon="-0.52906">
        <ele>216.43395996094</ele>
        <time>2016-07-30T07:42:27Z</time>
      </trkpt>
      <trkpt lat="43.34511" lon="-0.5286">
        <ele>214.03063964844</ele>
        <time>2016-07-30T07:42:34Z</time>
      </trkpt>
      <trkpt lat="43.34497" lon="-0.52846">
        <ele>214.51123046875</ele>
        <time>2016-07-30T07:42:38Z</time>
      </trkpt>
      <trkpt lat="43.3449" lon="-0.52837">
        <ele>215.95324707031</ele>
        <time>2016-07-30T07:42:41Z</time>
      </trkpt>
      <trkpt lat="43.34488" lon="-0.52836">
        <ele>216.43395996094</ele>
        <time>2016-07-30T07:42:42Z</time>
      </trkpt>
      <trkpt lat="43.34473" lon="-0.52814">
        <ele>217.39538574219</ele>
        <time>2016-07-30T07:42:52Z</time>
      </trkpt>
      <trkpt lat="43.34462" lon="-0.5277">
        <ele>215.95324707031</ele>
        <time>2016-07-30T07:43:01Z</time>
      </trkpt>
      <trkpt lat="43.34463" lon="-0.52735">
        <ele>216.43395996094</ele>
        <time>2016-07-30T07:43:07Z</time>
      </trkpt>
      <trkpt lat="43.34441" lon="-0.527">
        <ele>217.39538574219</ele>
        <time>2016-07-30T07:43:18Z</time>
      </trkpt>
      <trkpt lat="43.34433" lon="-0.52693">
        <ele>217.39538574219</ele>
        <time>2016-07-30T07:43:21Z</time>
      </trkpt>
      <trkpt lat="43.34431" lon="-0.52676">
        <ele>216.43395996094</ele>
        <time>2016-07-30T07:43:24Z</time>
      </trkpt>
      <trkpt lat="43.34418" lon="-0.52655">
        <ele>214.99194335938</ele>
        <time>2016-07-30T07:43:31Z</time>
      </trkpt>
      <trkpt lat="43.34418" lon="-0.52642">
        <ele>213.55004882812</ele>
        <time>2016-07-30T07:43:34Z</time>
      </trkpt>
      <trkpt lat="43.34414" lon="-0.52622">
        <ele>214.51123046875</ele>
        <time>2016-07-30T07:43:38Z</time>
      </trkpt>
      <trkpt lat="43.34407" lon="-0.52608">
        <ele>213.55004882812</ele>
        <time>2016-07-30T07:43:45Z</time>
      </trkpt>
      <trkpt lat="43.34404" lon="-0.52609">
        <ele>213.0693359375</ele>
        <time>2016-07-30T07:43:46Z</time>
      </trkpt>
      <trkpt lat="43.34398" lon="-0.52608">
        <ele>212.58862304688</ele>
        <time>2016-07-30T07:43:48Z</time>
      </trkpt>
      <trkpt lat="43.34393" lon="-0.52608">
        <ele>212.58862304688</ele>
        <time>2016-07-30T07:43:52Z</time>
      </trkpt>
      <trkpt lat="43.34392" lon="-0.52606">
        <ele>212.58862304688</ele>
        <time>2016-07-30T07:43:54Z</time>
      </trkpt>
      <trkpt lat="43.34379" lon="-0.5258">
        <ele>211.14672851562</ele>
        <time>2016-07-30T07:44:03Z</time>
      </trkpt>
      <trkpt lat="43.34372" lon="-0.52571">
        <ele>210.18542480469</ele>
        <time>2016-07-30T07:44:05Z</time>
      </trkpt>
      <trkpt lat="43.34363" lon="-0.52543">
        <ele>210.18542480469</ele>
        <time>2016-07-30T07:44:10Z</time>
      </trkpt>
      <trkpt lat="43.34359" lon="-0.52523">
        <ele>211.14672851562</ele>
        <time>2016-07-30T07:44:14Z</time>
      </trkpt>
      <trkpt lat="43.34338" lon="-0.52483">
        <ele>209.70483398438</ele>
        <time>2016-07-30T07:44:24Z</time>
      </trkpt>
      <trkpt lat="43.34333" lon="-0.52474">
        <ele>208.74340820312</ele>
        <time>2016-07-30T07:44:26Z</time>
      </trkpt>
      <trkpt lat="43.34316" lon="-0.52453">
        <ele>208.74340820312</ele>
        <time>2016-07-30T07:44:30Z</time>
      </trkpt>
      <trkpt lat="43.34306" lon="-0.52444">
        <ele>208.74340820312</ele>
        <time>2016-07-30T07:44:32Z</time>
      </trkpt>
      <trkpt lat="43.34292" lon="-0.52423">
        <ele>207.78210449219</ele>
        <time>2016-07-30T07:44:36Z</time>
      </trkpt>
      <trkpt lat="43.34286" lon="-0.52406">
        <ele>209.22412109375</ele>
        <time>2016-07-30T07:44:39Z</time>
      </trkpt>
      <trkpt lat="43.34275" lon="-0.52356">
        <ele>210.18542480469</ele>
        <time>2016-07-30T07:44:49Z</time>
      </trkpt>
      <trkpt lat="43.34247" lon="-0.52328">
        <ele>211.14672851562</ele>
        <time>2016-07-30T07:44:59Z</time>
      </trkpt>
      <trkpt lat="43.34214" lon="-0.52322">
        <ele>210.18542480469</ele>
        <time>2016-07-30T07:45:08Z</time>
      </trkpt>
      <trkpt lat="43.34188" lon="-0.52308">
        <ele>212.10803222656</ele>
        <time>2016-07-30T07:45:18Z</time>
      </trkpt>
      <trkpt lat="43.34169" lon="-0.52287">
        <ele>214.99194335938</ele>
        <time>2016-07-30T07:45:28Z</time>
      </trkpt>
      <trkpt lat="43.34164" lon="-0.52282">
        <ele>216.43395996094</ele>
        <time>2016-07-30T07:45:31Z</time>
      </trkpt>
      <trkpt lat="43.34135" lon="-0.52262">
        <ele>217.8759765625</ele>
        <time>2016-07-30T07:45:45Z</time>
      </trkpt>
      <trkpt lat="43.3412" lon="-0.52257">
        <ele>217.8759765625</ele>
        <time>2016-07-30T07:45:53Z</time>
      </trkpt>
      <trkpt lat="43.34094" lon="-0.52227">
        <ele>215.47265625</ele>
        <time>2016-07-30T07:45:59Z</time>
      </trkpt>
      <trkpt lat="43.34075" lon="-0.52208">
        <ele>214.03063964844</ele>
        <time>2016-07-30T07:46:03Z</time>
      </trkpt>
      <trkpt lat="43.34045" lon="-0.52195">
        <ele>213.55004882812</ele>
        <time>2016-07-30T07:46:08Z</time>
      </trkpt>
      <trkpt lat="43.34035" lon="-0.5219">
        <ele>212.10803222656</ele>
        <time>2016-07-30T07:46:10Z</time>
      </trkpt>
      <trkpt lat="43.34014" lon="-0.52172">
        <ele>213.0693359375</ele>
        <time>2016-07-30T07:46:17Z</time>
      </trkpt>
      <trkpt lat="43.34015" lon="-0.52191">
        <ele>211.14672851562</ele>
        <time>2016-07-30T07:46:23Z</time>
      </trkpt>
      <trkpt lat="43.34039" lon="-0.52253">
        <ele>207.78210449219</ele>
        <time>2016-07-30T07:46:32Z</time>
      </trkpt>
      <trkpt lat="43.34054" lon="-0.52275">
        <ele>206.34008789062</ele>
        <time>2016-07-30T07:46:36Z</time>
      </trkpt>
      <trkpt lat="43.34082" lon="-0.52319">
        <ele>209.22412109375</ele>
        <time>2016-07-30T07:46:48Z</time>
      </trkpt>
      <trkpt lat="43.34092" lon="-0.5237">
        <ele>209.70483398438</ele>
        <time>2016-07-30T07:46:59Z</time>
      </trkpt>
      <trkpt lat="43.34112" lon="-0.52429">
        <ele>209.70483398438</ele>
        <time>2016-07-30T07:47:11Z</time>
      </trkpt>
      <trkpt lat="43.34135" lon="-0.5248">
        <ele>208.74340820312</ele>
        <time>2016-07-30T07:47:21Z</time>
      </trkpt>
      <trkpt lat="43.34152" lon="-0.52555">
        <ele>209.22412109375</ele>
        <time>2016-07-30T07:47:35Z</time>
      </trkpt>
      <trkpt lat="43.34101" lon="-0.52596">
        <ele>205.85949707031</ele>
        <time>2016-07-30T07:47:48Z</time>
      </trkpt>
      <trkpt lat="43.34094" lon="-0.52602">
        <ele>206.34008789062</ele>
        <time>2016-07-30T07:47:50Z</time>
      </trkpt>
      <trkpt lat="43.34045" lon="-0.52627">
        <ele>207.30139160156</ele>
        <time>2016-07-30T07:48:03Z</time>
      </trkpt>
      <trkpt lat="43.34008" lon="-0.52673">
        <ele>209.22412109375</ele>
        <time>2016-07-30T07:48:16Z</time>
      </trkpt>
      <trkpt lat="43.3399" lon="-0.52729">
        <ele>210.18542480469</ele>
        <time>2016-07-30T07:48:30Z</time>
      </trkpt>
      <trkpt lat="43.33971" lon="-0.52781">
        <ele>209.70483398438</ele>
        <time>2016-07-30T07:48:41Z</time>
      </trkpt>
      <trkpt lat="43.33958" lon="-0.52846">
        <ele>206.34008789062</ele>
        <time>2016-07-30T07:48:50Z</time>
      </trkpt>
      <trkpt lat="43.33952" lon="-0.52881">
        <ele>205.37878417969</ele>
        <time>2016-07-30T07:48:54Z</time>
      </trkpt>
      <trkpt lat="43.33943" lon="-0.52948">
        <ele>202.97546386719</ele>
        <time>2016-07-30T07:49:02Z</time>
      </trkpt>
      <trkpt lat="43.33953" lon="-0.53061">
        <ele>203.45617675781</ele>
        <time>2016-07-30T07:49:19Z</time>
      </trkpt>
      <trkpt lat="43.33954" lon="-0.53073">
        <ele>202.97546386719</ele>
        <time>2016-07-30T07:49:21Z</time>
      </trkpt>
      <trkpt lat="43.33953" lon="-0.53086">
        <ele>203.45617675781</ele>
        <time>2016-07-30T07:49:23Z</time>
      </trkpt>
      <trkpt lat="43.33968" lon="-0.53145">
        <ele>206.34008789062</ele>
        <time>2016-07-30T07:49:35Z</time>
      </trkpt>
      <trkpt lat="43.34005" lon="-0.53176">
        <ele>209.22412109375</ele>
        <time>2016-07-30T07:49:50Z</time>
      </trkpt>
      <trkpt lat="43.34049" lon="-0.53182">
        <ele>211.14672851562</ele>
        <time>2016-07-30T07:50:09Z</time>
      </trkpt>
      <trkpt lat="43.34097" lon="-0.53178">
        <ele>212.58862304688</ele>
        <time>2016-07-30T07:50:27Z</time>
      </trkpt>
      <trkpt lat="43.34142" lon="-0.53182">
        <ele>214.03063964844</ele>
        <time>2016-07-30T07:50:42Z</time>
      </trkpt>
      <trkpt lat="43.3417" lon="-0.53184">
        <ele>216.91467285156</ele>
        <time>2016-07-30T07:50:54Z</time>
      </trkpt>
      <trkpt lat="43.34191" lon="-0.53169">
        <ele>217.39538574219</ele>
        <time>2016-07-30T07:51:07Z</time>
      </trkpt>
      <trkpt lat="43.34221" lon="-0.53134">
        <ele>215.95324707031</ele>
        <time>2016-07-30T07:51:19Z</time>
      </trkpt>
      <trkpt lat="43.34235" lon="-0.53119">
        <ele>216.91467285156</ele>
        <time>2016-07-30T07:51:23Z</time>
      </trkpt>
      <trkpt lat="43.34254" lon="-0.53105">
        <ele>216.43395996094</ele>
        <time>2016-07-30T07:51:28Z</time>
      </trkpt>
      <trkpt lat="43.34263" lon="-0.53091">
        <ele>215.95324707031</ele>
        <time>2016-07-30T07:51:32Z</time>
      </trkpt>
      <trkpt lat="43.34283" lon="-0.53047">
        <ele>217.39538574219</ele>
        <time>2016-07-30T07:51:42Z</time>
      </trkpt>
      <trkpt lat="43.34285" lon="-0.53045">
        <ele>217.8759765625</ele>
        <time>2016-07-30T07:51:43Z</time>
      </trkpt>
      <trkpt lat="43.34301" lon="-0.53028">
        <ele>219.31799316406</ele>
        <time>2016-07-30T07:51:51Z</time>
      </trkpt>
      <trkpt lat="43.34323" lon="-0.53007">
        <ele>217.39538574219</ele>
        <time>2016-07-30T07:51:58Z</time>
      </trkpt>
      <trkpt lat="43.34349" lon="-0.52996">
        <ele>216.43395996094</ele>
        <time>2016-07-30T07:52:03Z</time>
      </trkpt>
      <trkpt lat="43.34391" lon="-0.53007">
        <ele>215.47265625</ele>
        <time>2016-07-30T07:52:11Z</time>
      </trkpt>
      <trkpt lat="43.34394" lon="-0.5301">
        <ele>215.95324707031</ele>
        <time>2016-07-30T07:52:12Z</time>
      </trkpt>
      <trkpt lat="43.34416" lon="-0.53049">
        <ele>217.8759765625</ele>
        <time>2016-07-30T07:52:23Z</time>
      </trkpt>
      <trkpt lat="43.34425" lon="-0.53094">
        <ele>218.83728027344</ele>
        <time>2016-07-30T07:52:33Z</time>
      </trkpt>
      <trkpt lat="43.34426" lon="-0.53156">
        <ele>217.8759765625</ele>
        <time>2016-07-30T07:52:43Z</time>
      </trkpt>
      <trkpt lat="43.34428" lon="-0.53181">
        <ele>215.95324707031</ele>
        <time>2016-07-30T07:52:47Z</time>
      </trkpt>
      <trkpt lat="43.34452" lon="-0.53248">
        <ele>217.8759765625</ele>
        <time>2016-07-30T07:52:59Z</time>
      </trkpt>
      <trkpt lat="43.34479" lon="-0.53305">
        <ele>218.83728027344</ele>
        <time>2016-07-30T07:53:11Z</time>
      </trkpt>
      <trkpt lat="43.34493" lon="-0.53345">
        <ele>219.31799316406</ele>
        <time>2016-07-30T07:53:21Z</time>
      </trkpt>
      <trkpt lat="43.34493" lon="-0.53383">
        <ele>216.91467285156</ele>
        <time>2016-07-30T07:53:26Z</time>
      </trkpt>
      <trkpt lat="43.34499" lon="-0.53411">
        <ele>214.99194335938</ele>
        <time>2016-07-30T07:53:29Z</time>
      </trkpt>
      <trkpt lat="43.34507" lon="-0.53427">
        <ele>214.51123046875</ele>
        <time>2016-07-30T07:53:31Z</time>
      </trkpt>
      <trkpt lat="43.34526" lon="-0.53479">
        <ele>214.03063964844</ele>
        <time>2016-07-30T07:53:38Z</time>
      </trkpt>
      <trkpt lat="43.34532" lon="-0.53502">
        <ele>214.51123046875</ele>
        <time>2016-07-30T07:53:42Z</time>
      </trkpt>
      <trkpt lat="43.34532" lon="-0.53547">
        <ele>214.99194335938</ele>
        <time>2016-07-30T07:53:50Z</time>
      </trkpt>
      <trkpt lat="43.34532" lon="-0.53576">
        <ele>214.51123046875</ele>
        <time>2016-07-30T07:53:55Z</time>
      </trkpt>
      <trkpt lat="43.3454" lon="-0.53626">
        <ele>216.91467285156</ele>
        <time>2016-07-30T07:54:06Z</time>
      </trkpt>
      <trkpt lat="43.34555" lon="-0.53649">
        <ele>218.83728027344</ele>
        <time>2016-07-30T07:54:15Z</time>
      </trkpt>
      <trkpt lat="43.34577" lon="-0.53651">
        <ele>221.72119140625</ele>
        <time>2016-07-30T07:54:28Z</time>
      </trkpt>
      <trkpt lat="43.34603" lon="-0.53629">
        <ele>218.83728027344</ele>
        <time>2016-07-30T07:54:39Z</time>
      </trkpt>
      <trkpt lat="43.34627" lon="-0.53592">
        <ele>217.39538574219</ele>
        <time>2016-07-30T07:54:45Z</time>
      </trkpt>
      <trkpt lat="43.34639" lon="-0.53567">
        <ele>215.95324707031</ele>
        <time>2016-07-30T07:54:48Z</time>
      </trkpt>
      <trkpt lat="43.34648" lon="-0.5353">
        <ele>214.03063964844</ele>
        <time>2016-07-30T07:54:52Z</time>
      </trkpt>
      <trkpt lat="43.34654" lon="-0.53503">
        <ele>212.58862304688</ele>
        <time>2016-07-30T07:54:55Z</time>
      </trkpt>
      <trkpt lat="43.34657" lon="-0.53494">
        <ele>211.62744140625</ele>
        <time>2016-07-30T07:54:56Z</time>
      </trkpt>
      <trkpt lat="43.34664" lon="-0.53477">
        <ele>211.14672851562</ele>
        <time>2016-07-30T07:54:58Z</time>
      </trkpt>
      <trkpt lat="43.34694" lon="-0.53395">
        <ele>207.78210449219</ele>
        <time>2016-07-30T07:55:07Z</time>
      </trkpt>
      <trkpt lat="43.34701" lon="-0.53357">
        <ele>207.30139160156</ele>
        <time>2016-07-30T07:55:11Z</time>
      </trkpt>
      <trkpt lat="43.34703" lon="-0.53338">
        <ele>207.30139160156</ele>
        <time>2016-07-30T07:55:13Z</time>
      </trkpt>
      <trkpt lat="43.34711" lon="-0.53305">
        <ele>207.30139160156</ele>
        <time>2016-07-30T07:55:17Z</time>
      </trkpt>
      <trkpt lat="43.34726" lon="-0.53263">
        <ele>206.82067871094</ele>
        <time>2016-07-30T07:55:23Z</time>
      </trkpt>
      <trkpt lat="43.34743" lon="-0.53236">
        <ele>205.85949707031</ele>
        <time>2016-07-30T07:55:28Z</time>
      </trkpt>
      <trkpt lat="43.34755" lon="-0.53219">
        <ele>206.34008789062</ele>
        <time>2016-07-30T07:55:31Z</time>
      </trkpt>
      <trkpt lat="43.3477" lon="-0.53201">
        <ele>203.93688964844</ele>
        <time>2016-07-30T07:55:34Z</time>
      </trkpt>
      <trkpt lat="43.34788" lon="-0.53181">
        <ele>202.49487304688</ele>
        <time>2016-07-30T07:55:37Z</time>
      </trkpt>
      <trkpt lat="43.34836" lon="-0.53166">
        <ele>199.13012695312</ele>
        <time>2016-07-30T07:55:45Z</time>
      </trkpt>
      <trkpt lat="43.34891" lon="-0.53171">
        <ele>201.05285644531</ele>
        <time>2016-07-30T07:55:57Z</time>
      </trkpt>
      <trkpt lat="43.34908" lon="-0.53171">
        <ele>203.45617675781</ele>
        <time>2016-07-30T07:56:03Z</time>
      </trkpt>
      <trkpt lat="43.34912" lon="-0.53171">
        <ele>204.41748046875</ele>
        <time>2016-07-30T07:56:05Z</time>
      </trkpt>
      <trkpt lat="43.3492" lon="-0.53173">
        <ele>204.41748046875</ele>
        <time>2016-07-30T07:56:08Z</time>
      </trkpt>
      <trkpt lat="43.34945" lon="-0.5321">
        <ele>205.85949707031</ele>
        <time>2016-07-30T07:56:22Z</time>
      </trkpt>
      <trkpt lat="43.34966" lon="-0.53253">
        <ele>207.30139160156</ele>
        <time>2016-07-30T07:56:35Z</time>
      </trkpt>
      <trkpt lat="43.34975" lon="-0.53307">
        <ele>205.85949707031</ele>
        <time>2016-07-30T07:56:45Z</time>
      </trkpt>
      <trkpt lat="43.34977" lon="-0.53316">
        <ele>204.89807128906</ele>
        <time>2016-07-30T07:56:46Z</time>
      </trkpt>
      <trkpt lat="43.34991" lon="-0.53347">
        <ele>204.41748046875</ele>
        <time>2016-07-30T07:56:50Z</time>
      </trkpt>
      <trkpt lat="43.35" lon="-0.53395">
        <ele>202.01428222656</ele>
        <time>2016-07-30T07:56:56Z</time>
      </trkpt>
      <trkpt lat="43.35003" lon="-0.53519">
        <ele>200.572265625</ele>
        <time>2016-07-30T07:57:11Z</time>
      </trkpt>
      <trkpt lat="43.35001" lon="-0.53589">
        <ele>200.09167480469</ele>
        <time>2016-07-30T07:57:20Z</time>
      </trkpt>
      <trkpt lat="43.35005" lon="-0.5362">
        <ele>199.61083984375</ele>
        <time>2016-07-30T07:57:24Z</time>
      </trkpt>
      <trkpt lat="43.35042" lon="-0.53734">
        <ele>196.72692871094</ele>
        <time>2016-07-30T07:57:38Z</time>
      </trkpt>
      <trkpt lat="43.35055" lon="-0.53805">
        <ele>199.61083984375</ele>
        <time>2016-07-30T07:57:51Z</time>
      </trkpt>
      <trkpt lat="43.35064" lon="-0.53842">
        <ele>201.05285644531</ele>
        <time>2016-07-30T07:58:02Z</time>
      </trkpt>
      <trkpt lat="43.35067" lon="-0.53882">
        <ele>202.01428222656</ele>
        <time>2016-07-30T07:58:12Z</time>
      </trkpt>
      <trkpt lat="43.35066" lon="-0.53926">
        <ele>201.53356933594</ele>
        <time>2016-07-30T07:58:21Z</time>
      </trkpt>
      <trkpt lat="43.35077" lon="-0.53971">
        <ele>203.93688964844</ele>
        <time>2016-07-30T07:58:30Z</time>
      </trkpt>
      <trkpt lat="43.35099" lon="-0.54017">
        <ele>205.85949707031</ele>
        <time>2016-07-30T07:58:42Z</time>
      </trkpt>
      <trkpt lat="43.35125" lon="-0.54031">
        <ele>206.34008789062</ele>
        <time>2016-07-30T07:58:51Z</time>
      </trkpt>
      <trkpt lat="43.35152" lon="-0.54041">
        <ele>204.89807128906</ele>
        <time>2016-07-30T07:59:00Z</time>
      </trkpt>
      <trkpt lat="43.35176" lon="-0.54052">
        <ele>203.93688964844</ele>
        <time>2016-07-30T07:59:05Z</time>
      </trkpt>
      <trkpt lat="43.35188" lon="-0.54062">
        <ele>202.97546386719</ele>
        <time>2016-07-30T07:59:08Z</time>
      </trkpt>
      <trkpt lat="43.35192" lon="-0.54086">
        <ele>200.09167480469</ele>
        <time>2016-07-30T07:59:12Z</time>
      </trkpt>
      <trkpt lat="43.35188" lon="-0.541">
        <ele>199.13012695312</ele>
        <time>2016-07-30T07:59:14Z</time>
      </trkpt>
      <trkpt lat="43.35176" lon="-0.54139">
        <ele>195.28491210938</ele>
        <time>2016-07-30T07:59:19Z</time>
      </trkpt>
      <trkpt lat="43.35174" lon="-0.54146">
        <ele>195.765625</ele>
        <time>2016-07-30T07:59:20Z</time>
      </trkpt>
      <trkpt lat="43.3517" lon="-0.54169">
        <ele>192.40112304688</ele>
        <time>2016-07-30T07:59:23Z</time>
      </trkpt>
      <trkpt lat="43.35174" lon="-0.54202">
        <ele>189.99768066406</ele>
        <time>2016-07-30T07:59:27Z</time>
      </trkpt>
      <trkpt lat="43.35194" lon="-0.54279">
        <ele>185.67175292969</ele>
        <time>2016-07-30T07:59:35Z</time>
      </trkpt>
      <trkpt lat="43.35196" lon="-0.54289">
        <ele>185.19116210938</ele>
        <time>2016-07-30T07:59:36Z</time>
      </trkpt>
      <trkpt lat="43.35198" lon="-0.54298">
        <ele>185.19116210938</ele>
        <time>2016-07-30T07:59:37Z</time>
      </trkpt>
      <trkpt lat="43.35199" lon="-0.54332">
        <ele>184.22985839844</ele>
        <time>2016-07-30T07:59:41Z</time>
      </trkpt>
      <trkpt lat="43.35184" lon="-0.54405">
        <ele>186.15246582031</ele>
        <time>2016-07-30T07:59:52Z</time>
      </trkpt>
      <trkpt lat="43.35165" lon="-0.54488">
        <ele>183.26843261719</ele>
        <time>2016-07-30T08:00:05Z</time>
      </trkpt>
      <trkpt lat="43.35165" lon="-0.54524">
        <ele>178.94262695312</ele>
        <time>2016-07-30T08:00:09Z</time>
      </trkpt>
      <trkpt lat="43.35164" lon="-0.54565">
        <ele>176.05859375</ele>
        <time>2016-07-30T08:00:13Z</time>
      </trkpt>
      <trkpt lat="43.35164" lon="-0.54593">
        <ele>174.61657714844</ele>
        <time>2016-07-30T08:00:16Z</time>
      </trkpt>
      <trkpt lat="43.35129" lon="-0.54633">
        <ele>171.25207519531</ele>
        <time>2016-07-30T08:00:22Z</time>
      </trkpt>
      <trkpt lat="43.35109" lon="-0.54647">
        <ele>169.32946777344</ele>
        <time>2016-07-30T08:00:25Z</time>
      </trkpt>
      <trkpt lat="43.35075" lon="-0.54659">
        <ele>165.48413085938</ele>
        <time>2016-07-30T08:00:31Z</time>
      </trkpt>
      <trkpt lat="43.35059" lon="-0.54652">
        <ele>163.5615234375</ele>
        <time>2016-07-30T08:00:33Z</time>
      </trkpt>
      <trkpt lat="43.35016" lon="-0.54647">
        <ele>160.19689941406</ele>
        <time>2016-07-30T08:00:38Z</time>
      </trkpt>
      <trkpt lat="43.35001" lon="-0.54643">
        <ele>159.23547363281</ele>
        <time>2016-07-30T08:00:40Z</time>
      </trkpt>
      <trkpt lat="43.34987" lon="-0.54639">
        <ele>157.79357910156</ele>
        <time>2016-07-30T08:00:42Z</time>
      </trkpt>
      <trkpt lat="43.34968" lon="-0.54634">
        <ele>154.90954589844</ele>
        <time>2016-07-30T08:00:45Z</time>
      </trkpt>
      <trkpt lat="43.34943" lon="-0.54635">
        <ele>150.10302734375</ele>
        <time>2016-07-30T08:00:49Z</time>
      </trkpt>
      <trkpt lat="43.34919" lon="-0.54664">
        <ele>146.2578125</ele>
        <time>2016-07-30T08:00:55Z</time>
      </trkpt>
      <trkpt lat="43.34918" lon="-0.54675">
        <ele>145.77709960938</ele>
        <time>2016-07-30T08:00:56Z</time>
      </trkpt>
      <trkpt lat="43.34902" lon="-0.54726">
        <ele>143.37365722656</ele>
        <time>2016-07-30T08:01:02Z</time>
      </trkpt>
      <trkpt lat="43.34895" lon="-0.54742">
        <ele>142.89306640625</ele>
        <time>2016-07-30T08:01:04Z</time>
      </trkpt>
      <trkpt lat="43.3486" lon="-0.54781">
        <ele>139.0478515625</ele>
        <time>2016-07-30T08:01:10Z</time>
      </trkpt>
      <trkpt lat="43.34848" lon="-0.5479">
        <ele>137.12524414062</ele>
        <time>2016-07-30T08:01:12Z</time>
      </trkpt>
      <trkpt lat="43.34838" lon="-0.548">
        <ele>136.64465332031</ele>
        <time>2016-07-30T08:01:14Z</time>
      </trkpt>
      <trkpt lat="43.34828" lon="-0.54819">
        <ele>134.72192382812</ele>
        <time>2016-07-30T08:01:17Z</time>
      </trkpt>
      <trkpt lat="43.34822" lon="-0.54839">
        <ele>133.76049804688</ele>
        <time>2016-07-30T08:01:20Z</time>
      </trkpt>
      <trkpt lat="43.34797" lon="-0.54825">
        <ele>133.27990722656</ele>
        <time>2016-07-30T08:01:29Z</time>
      </trkpt>
      <trkpt lat="43.3476" lon="-0.54776">
        <ele>136.64465332031</ele>
        <time>2016-07-30T08:01:43Z</time>
      </trkpt>
      <trkpt lat="43.34724" lon="-0.54733">
        <ele>138.08654785156</ele>
        <time>2016-07-30T08:01:57Z</time>
      </trkpt>
      <trkpt lat="43.34671" lon="-0.5469">
        <ele>137.12524414062</ele>
        <time>2016-07-30T08:02:10Z</time>
      </trkpt>
      <trkpt lat="43.34635" lon="-0.5467">
        <ele>138.08654785156</ele>
        <time>2016-07-30T08:02:21Z</time>
      </trkpt>
      <trkpt lat="43.34625" lon="-0.54669">
        <ele>137.12524414062</ele>
        <time>2016-07-30T08:02:23Z</time>
      </trkpt>
      <trkpt lat="43.34598" lon="-0.54634">
        <ele>136.16394042969</ele>
        <time>2016-07-30T08:02:30Z</time>
      </trkpt>
      <trkpt lat="43.34589" lon="-0.54586">
        <ele>135.20251464844</ele>
        <time>2016-07-30T08:02:36Z</time>
      </trkpt>
      <trkpt lat="43.3458" lon="-0.54558">
        <ele>135.20251464844</ele>
        <time>2016-07-30T08:02:40Z</time>
      </trkpt>
      <trkpt lat="43.34549" lon="-0.54546">
        <ele>134.72192382812</ele>
        <time>2016-07-30T08:02:47Z</time>
      </trkpt>
      <trkpt lat="43.3454" lon="-0.54549">
        <ele>134.72192382812</ele>
        <time>2016-07-30T08:02:49Z</time>
      </trkpt>
      <trkpt lat="43.34512" lon="-0.54544">
        <ele>135.20251464844</ele>
        <time>2016-07-30T08:02:55Z</time>
      </trkpt>
      <trkpt lat="43.34444" lon="-0.54506">
        <ele>132.79931640625</ele>
        <time>2016-07-30T08:03:08Z</time>
      </trkpt>
      <trkpt lat="43.34406" lon="-0.545">
        <ele>132.79931640625</ele>
        <time>2016-07-30T08:03:15Z</time>
      </trkpt>
      <trkpt lat="43.3434" lon="-0.54438">
        <ele>131.837890625</ele>
        <time>2016-07-30T08:03:29Z</time>
      </trkpt>
      <trkpt lat="43.34331" lon="-0.54428">
        <ele>131.837890625</ele>
        <time>2016-07-30T08:03:31Z</time>
      </trkpt>
      <trkpt lat="43.34313" lon="-0.54371">
        <ele>132.31860351562</ele>
        <time>2016-07-30T08:03:40Z</time>
      </trkpt>
      <trkpt lat="43.34306" lon="-0.54347">
        <ele>133.27990722656</ele>
        <time>2016-07-30T08:03:44Z</time>
      </trkpt>
      <trkpt lat="43.34296" lon="-0.54323">
        <ele>132.79931640625</ele>
        <time>2016-07-30T08:03:48Z</time>
      </trkpt>
      <trkpt lat="43.34288" lon="-0.54305">
        <ele>132.79931640625</ele>
        <time>2016-07-30T08:03:51Z</time>
      </trkpt>
      <trkpt lat="43.34272" lon="-0.54273">
        <ele>132.31860351562</ele>
        <time>2016-07-30T08:03:56Z</time>
      </trkpt>
      <trkpt lat="43.34252" lon="-0.54244">
        <ele>131.837890625</ele>
        <time>2016-07-30T08:04:01Z</time>
      </trkpt>
      <trkpt lat="43.34217" lon="-0.54217">
        <ele>131.837890625</ele>
        <time>2016-07-30T08:04:08Z</time>
      </trkpt>
      <trkpt lat="43.34201" lon="-0.5421">
        <ele>131.35729980469</ele>
        <time>2016-07-30T08:04:11Z</time>
      </trkpt>
      <trkpt lat="43.34174" lon="-0.54191">
        <ele>131.837890625</ele>
        <time>2016-07-30T08:04:17Z</time>
      </trkpt>
      <trkpt lat="43.34158" lon="-0.54176">
        <ele>131.837890625</ele>
        <time>2016-07-30T08:04:21Z</time>
      </trkpt>
      <trkpt lat="43.3412" lon="-0.54144">
        <ele>132.79931640625</ele>
        <time>2016-07-30T08:04:34Z</time>
      </trkpt>
      <trkpt lat="43.34087" lon="-0.54101">
        <ele>135.20251464844</ele>
        <time>2016-07-30T08:04:47Z</time>
      </trkpt>
      <trkpt lat="43.34042" lon="-0.5403">
        <ele>136.16394042969</ele>
        <time>2016-07-30T08:05:05Z</time>
      </trkpt>
      <trkpt lat="43.33987" lon="-0.5397">
        <ele>135.20251464844</ele>
        <time>2016-07-30T08:05:21Z</time>
      </trkpt>
      <trkpt lat="43.33978" lon="-0.53963">
        <ele>134.72192382812</ele>
        <time>2016-07-30T08:05:23Z</time>
      </trkpt>
      <trkpt lat="43.33951" lon="-0.53941">
        <ele>134.2412109375</ele>
        <time>2016-07-30T08:05:29Z</time>
      </trkpt>
      <trkpt lat="43.3387" lon="-0.53898">
        <ele>132.79931640625</ele>
        <time>2016-07-30T08:05:44Z</time>
      </trkpt>
      <trkpt lat="43.33865" lon="-0.53895">
        <ele>132.31860351562</ele>
        <time>2016-07-30T08:05:45Z</time>
      </trkpt>
      <trkpt lat="43.33855" lon="-0.53888">
        <ele>132.79931640625</ele>
        <time>2016-07-30T08:05:47Z</time>
      </trkpt>
      <trkpt lat="43.33816" lon="-0.53845">
        <ele>134.2412109375</ele>
        <time>2016-07-30T08:05:57Z</time>
      </trkpt>
      <trkpt lat="43.33805" lon="-0.53832">
        <ele>134.72192382812</ele>
        <time>2016-07-30T08:06:00Z</time>
      </trkpt>
      <trkpt lat="43.33791" lon="-0.53811">
        <ele>135.20251464844</ele>
        <time>2016-07-30T08:06:04Z</time>
      </trkpt>
      <trkpt lat="43.33778" lon="-0.53787">
        <ele>134.2412109375</ele>
        <time>2016-07-30T08:06:08Z</time>
      </trkpt>
      <trkpt lat="43.33712" lon="-0.53692">
        <ele>133.27990722656</ele>
        <time>2016-07-30T08:06:25Z</time>
      </trkpt>
      <trkpt lat="43.33664" lon="-0.53607">
        <ele>134.2412109375</ele>
        <time>2016-07-30T08:06:41Z</time>
      </trkpt>
      <trkpt lat="43.3365" lon="-0.53579">
        <ele>134.72192382812</ele>
        <time>2016-07-30T08:06:46Z</time>
      </trkpt>
      <trkpt lat="43.33603" lon="-0.5353">
        <ele>133.76049804688</ele>
        <time>2016-07-30T08:06:57Z</time>
      </trkpt>
      <trkpt lat="43.33546" lon="-0.5351">
        <ele>133.76049804688</ele>
        <time>2016-07-30T08:07:09Z</time>
      </trkpt>
      <trkpt lat="43.33479" lon="-0.53487">
        <ele>135.20251464844</ele>
        <time>2016-07-30T08:07:24Z</time>
      </trkpt>
      <trkpt lat="43.33401" lon="-0.53445">
        <ele>135.20251464844</ele>
        <time>2016-07-30T08:07:42Z</time>
      </trkpt>
      <trkpt lat="43.33372" lon="-0.53415">
        <ele>136.16394042969</ele>
        <time>2016-07-30T08:07:51Z</time>
      </trkpt>
      <trkpt lat="43.33367" lon="-0.53405">
        <ele>136.16394042969</ele>
        <time>2016-07-30T08:07:53Z</time>
      </trkpt>
      <trkpt lat="43.33356" lon="-0.53377">
        <ele>136.16394042969</ele>
        <time>2016-07-30T08:07:59Z</time>
      </trkpt>
      <trkpt lat="43.33347" lon="-0.53381">
        <ele>136.64465332031</ele>
        <time>2016-07-30T08:08:03Z</time>
      </trkpt>
      <trkpt lat="43.33285" lon="-0.53466">
        <ele>135.20251464844</ele>
        <time>2016-07-30T08:08:20Z</time>
      </trkpt>
      <trkpt lat="43.33213" lon="-0.53562">
        <ele>133.76049804688</ele>
        <time>2016-07-30T08:08:37Z</time>
      </trkpt>
      <trkpt lat="43.33204" lon="-0.53571">
        <ele>134.72192382812</ele>
        <time>2016-07-30T08:08:39Z</time>
      </trkpt>
      <trkpt lat="43.33125" lon="-0.53672">
        <ele>134.2412109375</ele>
        <time>2016-07-30T08:08:59Z</time>
      </trkpt>
      <trkpt lat="43.33043" lon="-0.5373">
        <ele>133.76049804688</ele>
        <time>2016-07-30T08:09:15Z</time>
      </trkpt>
      <trkpt lat="43.32962" lon="-0.53785">
        <ele>135.20251464844</ele>
        <time>2016-07-30T08:09:33Z</time>
      </trkpt>
      <trkpt lat="43.32916" lon="-0.53869">
        <ele>136.16394042969</ele>
        <time>2016-07-30T08:09:49Z</time>
      </trkpt>
      <trkpt lat="43.3288" lon="-0.53971">
        <ele>136.64465332031</ele>
        <time>2016-07-30T08:10:07Z</time>
      </trkpt>
      <trkpt lat="43.32832" lon="-0.54071">
        <ele>138.08654785156</ele>
        <time>2016-07-30T08:10:29Z</time>
      </trkpt>
      <trkpt lat="43.3278" lon="-0.5415">
        <ele>141.45104980469</ele>
        <time>2016-07-30T08:10:51Z</time>
      </trkpt>
      <trkpt lat="43.32736" lon="-0.54216">
        <ele>144.33520507812</ele>
        <time>2016-07-30T08:11:13Z</time>
      </trkpt>
      <trkpt lat="43.32677" lon="-0.54286">
        <ele>147.21899414062</ele>
        <time>2016-07-30T08:11:39Z</time>
      </trkpt>
      <trkpt lat="43.32615" lon="-0.5435">
        <ele>150.10302734375</ele>
        <time>2016-07-30T08:12:05Z</time>
      </trkpt>
      <trkpt lat="43.32596" lon="-0.54362">
        <ele>151.06420898438</ele>
        <time>2016-07-30T08:12:12Z</time>
      </trkpt>
      <trkpt lat="43.32582" lon="-0.54346">
        <ele>150.58361816406</ele>
        <time>2016-07-30T08:12:18Z</time>
      </trkpt>
      <trkpt lat="43.32553" lon="-0.54281">
        <ele>152.50634765625</ele>
        <time>2016-07-30T08:12:38Z</time>
      </trkpt>
      <trkpt lat="43.32535" lon="-0.54243">
        <ele>154.42895507812</ele>
        <time>2016-07-30T08:12:56Z</time>
      </trkpt>
      <trkpt lat="43.32524" lon="-0.54231">
        <ele>156.83215332031</ele>
        <time>2016-07-30T08:13:04Z</time>
      </trkpt>
      <trkpt lat="43.32499" lon="-0.54225">
        <ele>160.19689941406</ele>
        <time>2016-07-30T08:13:22Z</time>
      </trkpt>
      <trkpt lat="43.32492" lon="-0.54231">
        <ele>161.63891601562</ele>
        <time>2016-07-30T08:13:28Z</time>
      </trkpt>
      <trkpt lat="43.32469" lon="-0.54234">
        <ele>165.00341796875</ele>
        <time>2016-07-30T08:13:47Z</time>
      </trkpt>
      <trkpt lat="43.32449" lon="-0.54234">
        <ele>167.40673828125</ele>
        <time>2016-07-30T08:14:04Z</time>
      </trkpt>
      <trkpt lat="43.32427" lon="-0.5425">
        <ele>170.77136230469</ele>
        <time>2016-07-30T08:14:24Z</time>
      </trkpt>
      <trkpt lat="43.32412" lon="-0.54264">
        <ele>173.6552734375</ele>
        <time>2016-07-30T08:14:39Z</time>
      </trkpt>
      <trkpt lat="43.3241" lon="-0.54266">
        <ele>174.13586425781</ele>
        <time>2016-07-30T08:14:52Z</time>
      </trkpt>
      <trkpt lat="43.32409" lon="-0.54266">
        <ele>174.61657714844</ele>
        <time>2016-07-30T08:14:53Z</time>
      </trkpt>
      <trkpt lat="43.32385" lon="-0.54285">
        <ele>177.50061035156</ele>
        <time>2016-07-30T08:15:13Z</time>
      </trkpt>
      <trkpt lat="43.32358" lon="-0.54312">
        <ele>178.94262695312</ele>
        <time>2016-07-30T08:15:34Z</time>
      </trkpt>
      <trkpt lat="43.32344" lon="-0.54337">
        <ele>182.30712890625</ele>
        <time>2016-07-30T08:15:49Z</time>
      </trkpt>
      <trkpt lat="43.32322" lon="-0.5436">
        <ele>184.71057128906</ele>
        <time>2016-07-30T08:16:08Z</time>
      </trkpt>
      <trkpt lat="43.32302" lon="-0.54367">
        <ele>186.63317871094</ele>
        <time>2016-07-30T08:16:23Z</time>
      </trkpt>
      <trkpt lat="43.32286" lon="-0.54374">
        <ele>189.99768066406</ele>
        <time>2016-07-30T08:16:35Z</time>
      </trkpt>
      <trkpt lat="43.32284" lon="-0.54375">
        <ele>189.99768066406</ele>
        <time>2016-07-30T08:16:37Z</time>
      </trkpt>
      <trkpt lat="43.32262" lon="-0.54373">
        <ele>191.92028808594</ele>
        <time>2016-07-30T08:16:55Z</time>
      </trkpt>
      <trkpt lat="43.32254" lon="-0.54373">
        <ele>192.40112304688</ele>
        <time>2016-07-30T08:17:01Z</time>
      </trkpt>
      <trkpt lat="43.32242" lon="-0.54369">
        <ele>196.24633789062</ele>
        <time>2016-07-30T08:17:12Z</time>
      </trkpt>
      <trkpt lat="43.3222" lon="-0.5436">
        <ele>199.13012695312</ele>
        <time>2016-07-30T08:17:32Z</time>
      </trkpt>
      <trkpt lat="43.32201" lon="-0.54352">
        <ele>202.01428222656</ele>
        <time>2016-07-30T08:17:48Z</time>
      </trkpt>
      <trkpt lat="43.32174" lon="-0.5434">
        <ele>205.85949707031</ele>
        <time>2016-07-30T08:18:10Z</time>
      </trkpt>
      <trkpt lat="43.32152" lon="-0.54329">
        <ele>209.22412109375</ele>
        <time>2016-07-30T08:18:28Z</time>
      </trkpt>
      <trkpt lat="43.32126" lon="-0.54327">
        <ele>211.62744140625</ele>
        <time>2016-07-30T08:18:47Z</time>
      </trkpt>
      <trkpt lat="43.321" lon="-0.54323">
        <ele>214.51123046875</ele>
        <time>2016-07-30T08:19:06Z</time>
      </trkpt>
      <trkpt lat="43.3207" lon="-0.54331">
        <ele>217.39538574219</ele>
        <time>2016-07-30T08:19:29Z</time>
      </trkpt>
      <trkpt lat="43.32043" lon="-0.54339">
        <ele>221.24060058594</ele>
        <time>2016-07-30T08:19:48Z</time>
      </trkpt>
      <trkpt lat="43.32009" lon="-0.54333">
        <ele>224.12451171875</ele>
        <time>2016-07-30T08:20:08Z</time>
      </trkpt>
      <trkpt lat="43.31975" lon="-0.54339">
        <ele>226.04711914062</ele>
        <time>2016-07-30T08:20:28Z</time>
      </trkpt>
      <trkpt lat="43.31932" lon="-0.5435">
        <ele>227.48913574219</ele>
        <time>2016-07-30T08:20:53Z</time>
      </trkpt>
      <trkpt lat="43.31912" lon="-0.54357">
        <ele>230.85375976562</ele>
        <time>2016-07-30T08:21:05Z</time>
      </trkpt>
      <trkpt lat="43.31895" lon="-0.54373">
        <ele>234.21838378906</ele>
        <time>2016-07-30T08:21:19Z</time>
      </trkpt>
      <trkpt lat="43.31862" lon="-0.54404">
        <ele>235.66027832031</ele>
        <time>2016-07-30T08:21:43Z</time>
      </trkpt>
      <trkpt lat="43.31839" lon="-0.54429">
        <ele>238.54431152344</ele>
        <time>2016-07-30T08:22:02Z</time>
      </trkpt>
      <trkpt lat="43.31838" lon="-0.54431">
        <ele>238.54431152344</ele>
        <time>2016-07-30T08:22:03Z</time>
      </trkpt>
      <trkpt lat="43.3181" lon="-0.54436">
        <ele>241.42822265625</ele>
        <time>2016-07-30T08:22:22Z</time>
      </trkpt>
      <trkpt lat="43.31774" lon="-0.54426">
        <ele>243.35083007812</ele>
        <time>2016-07-30T08:22:41Z</time>
      </trkpt>
      <trkpt lat="43.31745" lon="-0.54416">
        <ele>244.31225585938</ele>
        <time>2016-07-30T08:22:57Z</time>
      </trkpt>
      <trkpt lat="43.31721" lon="-0.54399">
        <ele>244.79284667969</ele>
        <time>2016-07-30T08:23:11Z</time>
      </trkpt>
      <trkpt lat="43.31692" lon="-0.54387">
        <ele>246.71545410156</ele>
        <time>2016-07-30T08:23:28Z</time>
      </trkpt>
      <trkpt lat="43.31661" lon="-0.54387">
        <ele>250.56079101562</ele>
        <time>2016-07-30T08:23:49Z</time>
      </trkpt>
      <trkpt lat="43.31625" lon="-0.54381">
        <ele>252.00280761719</ele>
        <time>2016-07-30T08:24:13Z</time>
      </trkpt>
      <trkpt lat="43.31598" lon="-0.54379">
        <ele>254.88659667969</ele>
        <time>2016-07-30T08:24:30Z</time>
      </trkpt>
      <trkpt lat="43.31575" lon="-0.54378">
        <ele>258.25134277344</ele>
        <time>2016-07-30T08:24:47Z</time>
      </trkpt>
      <trkpt lat="43.31566" lon="-0.54378">
        <ele>258.73193359375</ele>
        <time>2016-07-30T08:24:54Z</time>
      </trkpt>
      <trkpt lat="43.31548" lon="-0.5437">
        <ele>262.09655761719</ele>
        <time>2016-07-30T08:25:10Z</time>
      </trkpt>
      <trkpt lat="43.31531" lon="-0.54358">
        <ele>264.98059082031</ele>
        <time>2016-07-30T08:25:27Z</time>
      </trkpt>
      <trkpt lat="43.31512" lon="-0.54351">
        <ele>267.86450195312</ele>
        <time>2016-07-30T08:25:42Z</time>
      </trkpt>
      <trkpt lat="43.31491" lon="-0.54347">
        <ele>270.26770019531</ele>
        <time>2016-07-30T08:26:00Z</time>
      </trkpt>
      <trkpt lat="43.31469" lon="-0.54341">
        <ele>273.15185546875</ele>
        <time>2016-07-30T08:26:17Z</time>
      </trkpt>
      <trkpt lat="43.31437" lon="-0.54335">
        <ele>276.51635742188</ele>
        <time>2016-07-30T08:26:40Z</time>
      </trkpt>
      <trkpt lat="43.31414" lon="-0.54334">
        <ele>276.9970703125</ele>
        <time>2016-07-30T08:26:55Z</time>
      </trkpt>
      <trkpt lat="43.31383" lon="-0.54322">
        <ele>276.9970703125</ele>
        <time>2016-07-30T08:27:13Z</time>
      </trkpt>
      <trkpt lat="43.31332" lon="-0.54305">
        <ele>278.91967773438</ele>
        <time>2016-07-30T08:27:34Z</time>
      </trkpt>
      <trkpt lat="43.3128" lon="-0.54288">
        <ele>280.36169433594</ele>
        <time>2016-07-30T08:27:53Z</time>
      </trkpt>
      <trkpt lat="43.31233" lon="-0.54269">
        <ele>282.76501464844</ele>
        <time>2016-07-30T08:28:10Z</time>
      </trkpt>
      <trkpt lat="43.31193" lon="-0.54252">
        <ele>284.20690917969</ele>
        <time>2016-07-30T08:28:24Z</time>
      </trkpt>
      <trkpt lat="43.3115" lon="-0.54231">
        <ele>285.64880371094</ele>
        <time>2016-07-30T08:28:40Z</time>
      </trkpt>
      <trkpt lat="43.31114" lon="-0.54209">
        <ele>286.12951660156</ele>
        <time>2016-07-30T08:28:53Z</time>
      </trkpt>
      <trkpt lat="43.31063" lon="-0.54178">
        <ele>288.53295898438</ele>
        <time>2016-07-30T08:29:11Z</time>
      </trkpt>
      <trkpt lat="43.31054" lon="-0.54175">
        <ele>288.05224609375</ele>
        <time>2016-07-30T08:29:14Z</time>
      </trkpt>
      <trkpt lat="43.31044" lon="-0.54196">
        <ele>287.57141113281</ele>
        <time>2016-07-30T08:29:20Z</time>
      </trkpt>
      <trkpt lat="43.31045" lon="-0.5423">
        <ele>286.12951660156</ele>
        <time>2016-07-30T08:29:25Z</time>
      </trkpt>
      <trkpt lat="43.31046" lon="-0.54238">
        <ele>285.64880371094</ele>
        <time>2016-07-30T08:29:26Z</time>
      </trkpt>
      <trkpt lat="43.31039" lon="-0.54266">
        <ele>282.28430175781</ele>
        <time>2016-07-30T08:29:30Z</time>
      </trkpt>
      <trkpt lat="43.31035" lon="-0.54301">
        <ele>281.32299804688</ele>
        <time>2016-07-30T08:29:39Z</time>
      </trkpt>
      <trkpt lat="43.31081" lon="-0.54401">
        <ele>280.36169433594</ele>
        <time>2016-07-30T08:29:57Z</time>
      </trkpt>
      <trkpt lat="43.31152" lon="-0.54492">
        <ele>280.36169433594</ele>
        <time>2016-07-30T08:30:17Z</time>
      </trkpt>
      <trkpt lat="43.31244" lon="-0.54553">
        <ele>280.36169433594</ele>
        <time>2016-07-30T08:30:38Z</time>
      </trkpt>
      <trkpt lat="43.31305" lon="-0.5463">
        <ele>279.880859375</ele>
        <time>2016-07-30T08:30:56Z</time>
      </trkpt>
      <trkpt lat="43.3137" lon="-0.54719">
        <ele>279.880859375</ele>
        <time>2016-07-30T08:31:15Z</time>
      </trkpt>
      <trkpt lat="43.31441" lon="-0.54815">
        <ele>280.36169433594</ele>
        <time>2016-07-30T08:31:35Z</time>
      </trkpt>
      <trkpt lat="43.31504" lon="-0.54902">
        <ele>276.9970703125</ele>
        <time>2016-07-30T08:31:48Z</time>
      </trkpt>
      <trkpt lat="43.31514" lon="-0.54916">
        <ele>275.55505371094</ele>
        <time>2016-07-30T08:31:50Z</time>
      </trkpt>
      <trkpt lat="43.3155" lon="-0.54974">
        <ele>272.67114257812</ele>
        <time>2016-07-30T08:31:57Z</time>
      </trkpt>
      <trkpt lat="43.31555" lon="-0.54984">
        <ele>272.67114257812</ele>
        <time>2016-07-30T08:31:58Z</time>
      </trkpt>
      <trkpt lat="43.31609" lon="-0.55065">
        <ele>270.26770019531</ele>
        <time>2016-07-30T08:32:08Z</time>
      </trkpt>
      <trkpt lat="43.31658" lon="-0.5509">
        <ele>270.74841308594</ele>
        <time>2016-07-30T08:32:19Z</time>
      </trkpt>
      <trkpt lat="43.31683" lon="-0.55095">
        <ele>274.11303710938</ele>
        <time>2016-07-30T08:32:27Z</time>
      </trkpt>
      <trkpt lat="43.31732" lon="-0.5511">
        <ele>275.07446289062</ele>
        <time>2016-07-30T08:32:43Z</time>
      </trkpt>
      <trkpt lat="43.31804" lon="-0.55144">
        <ele>276.51635742188</ele>
        <time>2016-07-30T08:33:05Z</time>
      </trkpt>
      <trkpt lat="43.31829" lon="-0.55174">
        <ele>276.9970703125</ele>
        <time>2016-07-30T08:33:18Z</time>
      </trkpt>
      <trkpt lat="43.31852" lon="-0.55216">
        <ele>277.95825195312</ele>
        <time>2016-07-30T08:33:31Z</time>
      </trkpt>
      <trkpt lat="43.31881" lon="-0.55263">
        <ele>279.40026855469</ele>
        <time>2016-07-30T08:33:47Z</time>
      </trkpt>
      <trkpt lat="43.3192" lon="-0.55321">
        <ele>282.76501464844</ele>
        <time>2016-07-30T08:34:09Z</time>
      </trkpt>
      <trkpt lat="43.31962" lon="-0.55384">
        <ele>283.24560546875</ele>
        <time>2016-07-30T08:34:30Z</time>
      </trkpt>
      <trkpt lat="43.31983" lon="-0.55414">
        <ele>282.28430175781</ele>
        <time>2016-07-30T08:34:40Z</time>
      </trkpt>
      <trkpt lat="43.31982" lon="-0.55429">
        <ele>281.32299804688</ele>
        <time>2016-07-30T08:34:44Z</time>
      </trkpt>
      <trkpt lat="43.31962" lon="-0.5549">
        <ele>277.95825195312</ele>
        <time>2016-07-30T08:34:57Z</time>
      </trkpt>
      <trkpt lat="43.31955" lon="-0.55521">
        <ele>275.55505371094</ele>
        <time>2016-07-30T08:35:03Z</time>
      </trkpt>
      <trkpt lat="43.31948" lon="-0.55555">
        <ele>270.74841308594</ele>
        <time>2016-07-30T08:35:09Z</time>
      </trkpt>
      <trkpt lat="43.31947" lon="-0.5556">
        <ele>270.26770019531</ele>
        <time>2016-07-30T08:35:10Z</time>
      </trkpt>
      <trkpt lat="43.31941" lon="-0.55605">
        <ele>265.94189453125</ele>
        <time>2016-07-30T08:35:17Z</time>
      </trkpt>
      <trkpt lat="43.31939" lon="-0.55612">
        <ele>264.98059082031</ele>
        <time>2016-07-30T08:35:18Z</time>
      </trkpt>
      <trkpt lat="43.31935" lon="-0.55626">
        <ele>264.01928710938</ele>
        <time>2016-07-30T08:35:20Z</time>
      </trkpt>
      <trkpt lat="43.3192" lon="-0.55659">
        <ele>262.5771484375</ele>
        <time>2016-07-30T08:35:25Z</time>
      </trkpt>
      <trkpt lat="43.31906" lon="-0.55696">
        <ele>258.25134277344</ele>
        <time>2016-07-30T08:35:31Z</time>
      </trkpt>
      <trkpt lat="43.31892" lon="-0.55713">
        <ele>254.40600585938</ele>
        <time>2016-07-30T08:35:35Z</time>
      </trkpt>
      <trkpt lat="43.31873" lon="-0.5573">
        <ele>250.56079101562</ele>
        <time>2016-07-30T08:35:40Z</time>
      </trkpt>
      <trkpt lat="43.31855" lon="-0.55744">
        <ele>246.71545410156</ele>
        <time>2016-07-30T08:35:44Z</time>
      </trkpt>
      <trkpt lat="43.31843" lon="-0.55755">
        <ele>245.2734375</ele>
        <time>2016-07-30T08:35:47Z</time>
      </trkpt>
      <trkpt lat="43.31819" lon="-0.55763">
        <ele>240.46704101562</ele>
        <time>2016-07-30T08:35:52Z</time>
      </trkpt>
      <trkpt lat="43.31793" lon="-0.55756">
        <ele>236.14099121094</ele>
        <time>2016-07-30T08:35:57Z</time>
      </trkpt>
      <trkpt lat="43.31777" lon="-0.55754">
        <ele>231.81494140625</ele>
        <time>2016-07-30T08:36:01Z</time>
      </trkpt>
      <trkpt lat="43.31774" lon="-0.55754">
        <ele>231.81494140625</ele>
        <time>2016-07-30T08:36:02Z</time>
      </trkpt>
      <trkpt lat="43.31753" lon="-0.55751">
        <ele>228.93115234375</ele>
        <time>2016-07-30T08:36:08Z</time>
      </trkpt>
      <trkpt lat="43.3175" lon="-0.55751">
        <ele>228.45043945312</ele>
        <time>2016-07-30T08:36:09Z</time>
      </trkpt>
      <trkpt lat="43.31738" lon="-0.55756">
        <ele>227.9697265625</ele>
        <time>2016-07-30T08:36:12Z</time>
      </trkpt>
      <trkpt lat="43.31704" lon="-0.55767">
        <ele>224.12451171875</ele>
        <time>2016-07-30T08:36:17Z</time>
      </trkpt>
      <trkpt lat="43.31687" lon="-0.55773">
        <ele>221.72119140625</ele>
        <time>2016-07-30T08:36:19Z</time>
      </trkpt>
      <trkpt lat="43.31655" lon="-0.55797">
        <ele>216.43395996094</ele>
        <time>2016-07-30T08:36:23Z</time>
      </trkpt>
      <trkpt lat="43.3164" lon="-0.55817">
        <ele>215.47265625</ele>
        <time>2016-07-30T08:36:25Z</time>
      </trkpt>
      <trkpt lat="43.31617" lon="-0.55862">
        <ele>212.10803222656</ele>
        <time>2016-07-30T08:36:29Z</time>
      </trkpt>
      <trkpt lat="43.31612" lon="-0.55896">
        <ele>210.18542480469</ele>
        <time>2016-07-30T08:36:32Z</time>
      </trkpt>
      <trkpt lat="43.3161" lon="-0.55953">
        <ele>208.74340820312</ele>
        <time>2016-07-30T08:36:37Z</time>
      </trkpt>
      <trkpt lat="43.31601" lon="-0.55983">
        <ele>202.97546386719</ele>
        <time>2016-07-30T08:36:40Z</time>
      </trkpt>
      <trkpt lat="43.31594" lon="-0.55993">
        <ele>201.53356933594</ele>
        <time>2016-07-30T08:36:41Z</time>
      </trkpt>
      <trkpt lat="43.31569" lon="-0.56023">
        <ele>199.13012695312</ele>
        <time>2016-07-30T08:36:44Z</time>
      </trkpt>
      <trkpt lat="43.31548" lon="-0.56057">
        <ele>194.32373046875</ele>
        <time>2016-07-30T08:36:47Z</time>
      </trkpt>
      <trkpt lat="43.31543" lon="-0.56068">
        <ele>194.32373046875</ele>
        <time>2016-07-30T08:36:48Z</time>
      </trkpt>
      <trkpt lat="43.31538" lon="-0.56077">
        <ele>191.92028808594</ele>
        <time>2016-07-30T08:36:49Z</time>
      </trkpt>
      <trkpt lat="43.31519" lon="-0.56099">
        <ele>189.51696777344</ele>
        <time>2016-07-30T08:36:53Z</time>
      </trkpt>
      <trkpt lat="43.31503" lon="-0.56113">
        <ele>188.55578613281</ele>
        <time>2016-07-30T08:36:56Z</time>
      </trkpt>
      <trkpt lat="43.31491" lon="-0.56123">
        <ele>187.59436035156</ele>
        <time>2016-07-30T08:36:58Z</time>
      </trkpt>
      <trkpt lat="43.31484" lon="-0.56127">
        <ele>186.63317871094</ele>
        <time>2016-07-30T08:36:59Z</time>
      </trkpt>
      <trkpt lat="43.31476" lon="-0.56137">
        <ele>185.19116210938</ele>
        <time>2016-07-30T08:37:01Z</time>
      </trkpt>
      <trkpt lat="43.31473" lon="-0.56146">
        <ele>184.22985839844</ele>
        <time>2016-07-30T08:37:03Z</time>
      </trkpt>
      <trkpt lat="43.31447" lon="-0.56165">
        <ele>182.30712890625</ele>
        <time>2016-07-30T08:37:10Z</time>
      </trkpt>
      <trkpt lat="43.31408" lon="-0.5617">
        <ele>179.90380859375</ele>
        <time>2016-07-30T08:37:16Z</time>
      </trkpt>
      <trkpt lat="43.31383" lon="-0.56183">
        <ele>177.02001953125</ele>
        <time>2016-07-30T08:37:20Z</time>
      </trkpt>
      <trkpt lat="43.31364" lon="-0.56201">
        <ele>174.13586425781</ele>
        <time>2016-07-30T08:37:23Z</time>
      </trkpt>
      <trkpt lat="43.31323" lon="-0.56225">
        <ele>167.88732910156</ele>
        <time>2016-07-30T08:37:30Z</time>
      </trkpt>
      <trkpt lat="43.31318" lon="-0.56227">
        <ele>166.92602539062</ele>
        <time>2016-07-30T08:37:31Z</time>
      </trkpt>
      <trkpt lat="43.31309" lon="-0.56232">
        <ele>165.96472167969</ele>
        <time>2016-07-30T08:37:33Z</time>
      </trkpt>
      <trkpt lat="43.31302" lon="-0.56242">
        <ele>162.60009765625</ele>
        <time>2016-07-30T08:37:35Z</time>
      </trkpt>
      <trkpt lat="43.31294" lon="-0.56254">
        <ele>160.67749023438</ele>
        <time>2016-07-30T08:37:37Z</time>
      </trkpt>
      <trkpt lat="43.31263" lon="-0.56282">
        <ele>154.90954589844</ele>
        <time>2016-07-30T08:37:43Z</time>
      </trkpt>
      <trkpt lat="43.31237" lon="-0.56323">
        <ele>150.58361816406</ele>
        <time>2016-07-30T08:37:48Z</time>
      </trkpt>
      <trkpt lat="43.31227" lon="-0.5634">
        <ele>149.62231445312</ele>
        <time>2016-07-30T08:37:50Z</time>
      </trkpt>
      <trkpt lat="43.31201" lon="-0.56353">
        <ele>147.69970703125</ele>
        <time>2016-07-30T08:37:55Z</time>
      </trkpt>
      <trkpt lat="43.31163" lon="-0.56345">
        <ele>147.21899414062</ele>
        <time>2016-07-30T08:38:05Z</time>
      </trkpt>
      <trkpt lat="43.31159" lon="-0.56362">
        <ele>146.73840332031</ele>
        <time>2016-07-30T08:38:09Z</time>
      </trkpt>
      <trkpt lat="43.31153" lon="-0.56454">
        <ele>145.77709960938</ele>
        <time>2016-07-30T08:38:25Z</time>
      </trkpt>
      <trkpt lat="43.31137" lon="-0.56527">
        <ele>145.29638671875</ele>
        <time>2016-07-30T08:38:40Z</time>
      </trkpt>
      <trkpt lat="43.31125" lon="-0.56546">
        <ele>144.33520507812</ele>
        <time>2016-07-30T08:38:51Z</time>
      </trkpt>
      <trkpt lat="43.31129" lon="-0.56544">
        <ele>144.33520507812</ele>
        <time>2016-07-30T08:38:56Z</time>
      </trkpt>
      <trkpt lat="43.31136" lon="-0.56536">
        <ele>144.81579589844</ele>
        <time>2016-07-30T08:39:13Z</time>
      </trkpt>
      <trkpt lat="43.31136" lon="-0.56539">
        <ele>144.81579589844</ele>
        <time>2016-07-30T08:39:18Z</time>
      </trkpt>
      <trkpt lat="43.31125" lon="-0.56561">
        <ele>144.33520507812</ele>
        <time>2016-07-30T08:39:33Z</time>
      </trkpt>
      <trkpt lat="43.31106" lon="-0.56597">
        <ele>142.89306640625</ele>
        <time>2016-07-30T08:39:48Z</time>
      </trkpt>
      <trkpt lat="43.31103" lon="-0.56649">
        <ele>144.33520507812</ele>
        <time>2016-07-30T08:40:03Z</time>
      </trkpt>
      <trkpt lat="43.31105" lon="-0.5667">
        <ele>143.85437011719</ele>
        <time>2016-07-30T08:40:09Z</time>
      </trkpt>
      <trkpt lat="43.31102" lon="-0.56673">
        <ele>143.37365722656</ele>
        <time>2016-07-30T08:40:18Z</time>
      </trkpt>
      <trkpt lat="43.31103" lon="-0.56675">
        <ele>143.85437011719</ele>
        <time>2016-07-30T08:40:21Z</time>
      </trkpt>
      <trkpt lat="43.31108" lon="-0.5669">
        <ele>143.85437011719</ele>
        <time>2016-07-30T08:40:36Z</time>
      </trkpt>
      <trkpt lat="43.31131" lon="-0.56702">
        <ele>144.33520507812</ele>
        <time>2016-07-30T08:40:47Z</time>
      </trkpt>
      <trkpt lat="43.31152" lon="-0.56734">
        <ele>142.89306640625</ele>
        <time>2016-07-30T08:41:00Z</time>
      </trkpt>
      <trkpt lat="43.31152" lon="-0.56807">
        <ele>143.37365722656</ele>
        <time>2016-07-30T08:41:19Z</time>
      </trkpt>
      <trkpt lat="43.31155" lon="-0.56842">
        <ele>142.41247558594</ele>
        <time>2016-07-30T08:41:30Z</time>
      </trkpt>
      <trkpt lat="43.31193" lon="-0.56842">
        <ele>143.37365722656</ele>
        <time>2016-07-30T08:41:45Z</time>
      </trkpt>
      <trkpt lat="43.31242" lon="-0.56842">
        <ele>142.89306640625</ele>
        <time>2016-07-30T08:42:02Z</time>
      </trkpt>
      <trkpt lat="43.31255" lon="-0.56843">
        <ele>142.41247558594</ele>
        <time>2016-07-30T08:42:07Z</time>
      </trkpt>
      <trkpt lat="43.31257" lon="-0.56856">
        <ele>142.89306640625</ele>
        <time>2016-07-30T08:42:13Z</time>
      </trkpt>
      <trkpt lat="43.31248" lon="-0.56865">
        <ele>142.89306640625</ele>
        <time>2016-07-30T08:42:18Z</time>
      </trkpt>
      <trkpt lat="43.3123" lon="-0.56868">
        <ele>141.93176269531</ele>
        <time>2016-07-30T08:42:30Z</time>
      </trkpt>
      <trkpt lat="43.31228" lon="-0.56869">
        <ele>141.45104980469</ele>
        <time>2016-07-30T08:42:43Z</time>
      </trkpt>
      <trkpt lat="43.31226" lon="-0.5687">
        <ele>141.45104980469</ele>
        <time>2016-07-30T08:43:07Z</time>
      </trkpt>
      <trkpt lat="43.31214" lon="-0.56876">
        <ele>140.97045898438</ele>
        <time>2016-07-30T08:43:20Z</time>
      </trkpt>
      <trkpt lat="43.3121" lon="-0.56883">
        <ele>141.45104980469</ele>
        <time>2016-07-30T08:43:23Z</time>
      </trkpt>
      <trkpt lat="43.31195" lon="-0.56885">
        <ele>140.97045898438</ele>
        <time>2016-07-30T08:43:29Z</time>
      </trkpt>
      <trkpt lat="43.31142" lon="-0.56869">
        <ele>141.45104980469</ele>
        <time>2016-07-30T08:43:47Z</time>
      </trkpt>
      <trkpt lat="43.31071" lon="-0.56839">
        <ele>142.41247558594</ele>
        <time>2016-07-30T08:44:07Z</time>
      </trkpt>
      <trkpt lat="43.31025" lon="-0.56903">
        <ele>145.77709960938</ele>
        <time>2016-07-30T08:44:25Z</time>
      </trkpt>
      <trkpt lat="43.30975" lon="-0.56973">
        <ele>146.73840332031</ele>
        <time>2016-07-30T08:44:46Z</time>
      </trkpt>
      <trkpt lat="43.30962" lon="-0.57033">
        <ele>148.66101074219</ele>
        <time>2016-07-30T08:45:01Z</time>
      </trkpt>
      <trkpt lat="43.30967" lon="-0.57102">
        <ele>152.02575683594</ele>
        <time>2016-07-30T08:45:18Z</time>
      </trkpt>
      <trkpt lat="43.3097" lon="-0.57153">
        <ele>152.50634765625</ele>
        <time>2016-07-30T08:45:33Z</time>
      </trkpt>
      <trkpt lat="43.30991" lon="-0.57232">
        <ele>154.90954589844</ele>
        <time>2016-07-30T08:45:54Z</time>
      </trkpt>
      <trkpt lat="43.30987" lon="-0.57281">
        <ele>155.39025878906</ele>
        <time>2016-07-30T08:46:07Z</time>
      </trkpt>
      <trkpt lat="43.3098" lon="-0.57348">
        <ele>158.75476074219</ele>
        <time>2016-07-30T08:46:24Z</time>
      </trkpt>
      <trkpt lat="43.30983" lon="-0.57407">
        <ele>159.71618652344</ele>
        <time>2016-07-30T08:46:42Z</time>
      </trkpt>
      <trkpt lat="43.30995" lon="-0.57476">
        <ele>161.63891601562</ele>
        <time>2016-07-30T08:47:02Z</time>
      </trkpt>
      <trkpt lat="43.31028" lon="-0.57535">
        <ele>164.04211425781</ele>
        <time>2016-07-30T08:47:21Z</time>
      </trkpt>
      <trkpt lat="43.31046" lon="-0.57571">
        <ele>166.92602539062</ele>
        <time>2016-07-30T08:47:36Z</time>
      </trkpt>
      <trkpt lat="43.31052" lon="-0.57605">
        <ele>169.81005859375</ele>
        <time>2016-07-30T08:47:50Z</time>
      </trkpt>
      <trkpt lat="43.31033" lon="-0.57656">
        <ele>172.21325683594</ele>
        <time>2016-07-30T08:48:09Z</time>
      </trkpt>
      <trkpt lat="43.31043" lon="-0.57679">
        <ele>173.17468261719</ele>
        <time>2016-07-30T08:48:15Z</time>
      </trkpt>
      <trkpt lat="43.3105" lon="-0.57686">
        <ele>173.17468261719</ele>
        <time>2016-07-30T08:48:17Z</time>
      </trkpt>
      <trkpt lat="43.31129" lon="-0.57717">
        <ele>172.21325683594</ele>
        <time>2016-07-30T08:48:31Z</time>
      </trkpt>
      <trkpt lat="43.31203" lon="-0.57736">
        <ele>168.84875488281</ele>
        <time>2016-07-30T08:48:41Z</time>
      </trkpt>
      <trkpt lat="43.31296" lon="-0.57734">
        <ele>165.00341796875</ele>
        <time>2016-07-30T08:48:51Z</time>
      </trkpt>
      <trkpt lat="43.31305" lon="-0.57734">
        <ele>165.48413085938</ele>
        <time>2016-07-30T08:48:52Z</time>
      </trkpt>
      <trkpt lat="43.31416" lon="-0.57733">
        <ele>167.40673828125</ele>
        <time>2016-07-30T08:49:05Z</time>
      </trkpt>
      <trkpt lat="43.31444" lon="-0.57744">
        <ele>166.4453125</ele>
        <time>2016-07-30T08:49:09Z</time>
      </trkpt>
      <trkpt lat="43.31519" lon="-0.57797">
        <ele>164.04211425781</ele>
        <time>2016-07-30T08:49:23Z</time>
      </trkpt>
      <trkpt lat="43.31529" lon="-0.57806">
        <ele>164.04211425781</ele>
        <time>2016-07-30T08:49:26Z</time>
      </trkpt>
      <trkpt lat="43.31529" lon="-0.57823">
        <ele>165.00341796875</ele>
        <time>2016-07-30T08:49:30Z</time>
      </trkpt>
      <trkpt lat="43.31514" lon="-0.57862">
        <ele>167.40673828125</ele>
        <time>2016-07-30T08:49:46Z</time>
      </trkpt>
      <trkpt lat="43.31506" lon="-0.57885">
        <ele>169.81005859375</ele>
        <time>2016-07-30T08:49:57Z</time>
      </trkpt>
      <trkpt lat="43.31498" lon="-0.57908">
        <ele>172.69396972656</ele>
        <time>2016-07-30T08:50:09Z</time>
      </trkpt>
      <trkpt lat="43.3149" lon="-0.5793">
        <ele>176.05859375</ele>
        <time>2016-07-30T08:50:20Z</time>
      </trkpt>
      <trkpt lat="43.31482" lon="-0.5796">
        <ele>177.50061035156</ele>
        <time>2016-07-30T08:50:36Z</time>
      </trkpt>
      <trkpt lat="43.31474" lon="-0.57987">
        <ele>179.90380859375</ele>
        <time>2016-07-30T08:50:50Z</time>
      </trkpt>
      <trkpt lat="43.31465" lon="-0.58009">
        <ele>183.26843261719</ele>
        <time>2016-07-30T08:51:03Z</time>
      </trkpt>
      <trkpt lat="43.31451" lon="-0.58035">
        <ele>187.11376953125</ele>
        <time>2016-07-30T08:51:19Z</time>
      </trkpt>
      <trkpt lat="43.3145" lon="-0.58036">
        <ele>187.11376953125</ele>
        <time>2016-07-30T08:51:20Z</time>
      </trkpt>
      <trkpt lat="43.31427" lon="-0.58071">
        <ele>189.99768066406</ele>
        <time>2016-07-30T08:51:41Z</time>
      </trkpt>
      <trkpt lat="43.31398" lon="-0.58107">
        <ele>189.99768066406</ele>
        <time>2016-07-30T08:52:01Z</time>
      </trkpt>
      <trkpt lat="43.3136" lon="-0.58158">
        <ele>193.3623046875</ele>
        <time>2016-07-30T08:52:25Z</time>
      </trkpt>
      <trkpt lat="43.31325" lon="-0.58204">
        <ele>196.24633789062</ele>
        <time>2016-07-30T08:52:47Z</time>
      </trkpt>
      <trkpt lat="43.31301" lon="-0.5825">
        <ele>197.68823242188</ele>
        <time>2016-07-30T08:53:07Z</time>
      </trkpt>
      <trkpt lat="43.31285" lon="-0.58289">
        <ele>201.05285644531</ele>
        <time>2016-07-30T08:53:25Z</time>
      </trkpt>
      <trkpt lat="43.31262" lon="-0.58325">
        <ele>203.45617675781</ele>
        <time>2016-07-30T08:53:44Z</time>
      </trkpt>
      <trkpt lat="43.31248" lon="-0.58356">
        <ele>206.82067871094</ele>
        <time>2016-07-30T08:53:59Z</time>
      </trkpt>
      <trkpt lat="43.31241" lon="-0.5838">
        <ele>209.70483398438</ele>
        <time>2016-07-30T08:54:11Z</time>
      </trkpt>
      <trkpt lat="43.31231" lon="-0.58417">
        <ele>213.0693359375</ele>
        <time>2016-07-30T08:54:30Z</time>
      </trkpt>
      <trkpt lat="43.31216" lon="-0.58454">
        <ele>215.95324707031</ele>
        <time>2016-07-30T08:54:50Z</time>
      </trkpt>
      <trkpt lat="43.31198" lon="-0.58493">
        <ele>218.35656738281</ele>
        <time>2016-07-30T08:55:11Z</time>
      </trkpt>
      <trkpt lat="43.31179" lon="-0.58526">
        <ele>220.27917480469</ele>
        <time>2016-07-30T08:55:29Z</time>
      </trkpt>
      <trkpt lat="43.31168" lon="-0.58542">
        <ele>222.20178222656</ele>
        <time>2016-07-30T08:55:38Z</time>
      </trkpt>
      <trkpt lat="43.31172" lon="-0.5855">
        <ele>223.64379882812</ele>
        <time>2016-07-30T08:55:43Z</time>
      </trkpt>
      <trkpt lat="43.31175" lon="-0.58552">
        <ele>223.64379882812</ele>
        <time>2016-07-30T08:55:45Z</time>
      </trkpt>
      <trkpt lat="43.3118" lon="-0.58552">
        <ele>223.64379882812</ele>
        <time>2016-07-30T08:55:49Z</time>
      </trkpt>
      <trkpt lat="43.31225" lon="-0.58562">
        <ele>222.68249511719</ele>
        <time>2016-07-30T08:56:02Z</time>
      </trkpt>
      <trkpt lat="43.31289" lon="-0.58584">
        <ele>218.83728027344</ele>
        <time>2016-07-30T08:56:12Z</time>
      </trkpt>
      <trkpt lat="43.31324" lon="-0.58598">
        <ele>218.35656738281</ele>
        <time>2016-07-30T08:56:17Z</time>
      </trkpt>
      <trkpt lat="43.31394" lon="-0.58603">
        <ele>217.39538574219</ele>
        <time>2016-07-30T08:56:30Z</time>
      </trkpt>
      <trkpt lat="43.31403" lon="-0.58604">
        <ele>217.8759765625</ele>
        <time>2016-07-30T08:56:32Z</time>
      </trkpt>
      <trkpt lat="43.31416" lon="-0.58601">
        <ele>217.39538574219</ele>
        <time>2016-07-30T08:56:35Z</time>
      </trkpt>
      <trkpt lat="43.31465" lon="-0.58564">
        <ele>213.55004882812</ele>
        <time>2016-07-30T08:56:44Z</time>
      </trkpt>
      <trkpt lat="43.31486" lon="-0.58551">
        <ele>212.10803222656</ele>
        <time>2016-07-30T08:56:47Z</time>
      </trkpt>
      <trkpt lat="43.31507" lon="-0.58542">
        <ele>210.18542480469</ele>
        <time>2016-07-30T08:56:50Z</time>
      </trkpt>
      <trkpt lat="43.31557" lon="-0.58539">
        <ele>206.82067871094</ele>
        <time>2016-07-30T08:56:57Z</time>
      </trkpt>
      <trkpt lat="43.31573" lon="-0.58539">
        <ele>203.93688964844</ele>
        <time>2016-07-30T08:57:00Z</time>
      </trkpt>
      <trkpt lat="43.31587" lon="-0.58555">
        <ele>202.49487304688</ele>
        <time>2016-07-30T08:57:05Z</time>
      </trkpt>
      <trkpt lat="43.31587" lon="-0.58564">
        <ele>202.97546386719</ele>
        <time>2016-07-30T08:57:07Z</time>
      </trkpt>
      <trkpt lat="43.31585" lon="-0.58637">
        <ele>205.37878417969</ele>
        <time>2016-07-30T08:57:22Z</time>
      </trkpt>
      <trkpt lat="43.31582" lon="-0.58648">
        <ele>205.85949707031</ele>
        <time>2016-07-30T08:57:28Z</time>
      </trkpt>
      <trkpt lat="43.31578" lon="-0.5865">
        <ele>205.85949707031</ele>
        <time>2016-07-30T08:57:42Z</time>
      </trkpt>
      <trkpt lat="43.31573" lon="-0.58649">
        <ele>205.85949707031</ele>
        <time>2016-07-30T08:57:59Z</time>
      </trkpt>
      <trkpt lat="43.31575" lon="-0.58648">
        <ele>205.85949707031</ele>
        <time>2016-07-30T08:58:15Z</time>
      </trkpt>
      <trkpt lat="43.31573" lon="-0.58647">
        <ele>206.34008789062</ele>
        <time>2016-07-30T08:58:30Z</time>
      </trkpt>
      <trkpt lat="43.31574" lon="-0.58646">
        <ele>204.89807128906</ele>
        <time>2016-07-30T08:58:38Z</time>
      </trkpt>
    </trkseg>
  </trk>
</gpx>